<?xml version="1.0" encoding="UTF-8" standalone="no" ?>
<gpx xmlns="http://www.topografix.com/GPX/1/1" xmlns:xsi="http://www.w3.org/2001/XMLSchema-instance" xsi:schemaLocation="http://www.topografix.com/GPX/1/1 http://www.topografix.com/GPX/1/1/gpx.xsd" version="1.1" creator="VisuGPX - https://www.visugpx.com">
  <metadata>
    <name>Rognac -La croix</name>
    <desc><![CDATA[Petite rando du dimanche sans aucune difficulté.On peut la réaliser toute l\'année ,même l\'été car c\'est ombragé et il y a au départ des jeux d\'enfants.
Thym,romarin,oliviers, pins parasols et végétation provençale et paysages surprenants.  .
Pas d\'eau sur le chemin]]></desc>
  </metadata>
  <trk>
    <name><![CDATA[2014-01-05 16:35:01]]></name>
    <trkseg>
      <trkpt lat="43.482" lon="5.24134">
        <ele>67.43</ele>
        <time>2014-01-05T13:30:34Z</time>
      </trkpt>
      <trkpt lat="43.48196" lon="5.24134">
        <ele>63.58</ele>
        <time>2014-01-05T13:30:43Z</time>
      </trkpt>
      <trkpt lat="43.48193" lon="5.24136">
        <ele>60.22</ele>
        <time>2014-01-05T13:30:47Z</time>
      </trkpt>
      <trkpt lat="43.48192" lon="5.24137">
        <ele>58.3</ele>
        <time>2014-01-05T13:30:49Z</time>
      </trkpt>
      <trkpt lat="43.4819" lon="5.24144">
        <ele>56.37</ele>
        <time>2014-01-05T13:30:53Z</time>
      </trkpt>
      <trkpt lat="43.48188" lon="5.24153">
        <ele>52.53</ele>
        <time>2014-01-05T13:31:01Z</time>
      </trkpt>
      <trkpt lat="43.48188" lon="5.24154">
        <ele>53.01</ele>
        <time>2014-01-05T13:31:02Z</time>
      </trkpt>
      <trkpt lat="43.48189" lon="5.24174">
        <ele>50.13</ele>
        <time>2014-01-05T13:31:19Z</time>
      </trkpt>
      <trkpt lat="43.48189" lon="5.24193">
        <ele>47.72</ele>
        <time>2014-01-05T13:31:33Z</time>
      </trkpt>
      <trkpt lat="43.48186" lon="5.24219">
        <ele>47.72</ele>
        <time>2014-01-05T13:31:51Z</time>
      </trkpt>
      <trkpt lat="43.48187" lon="5.24224">
        <ele>47.72</ele>
        <time>2014-01-05T13:31:53Z</time>
      </trkpt>
      <trkpt lat="43.48186" lon="5.24254">
        <ele>46.76</ele>
        <time>2014-01-05T13:32:12Z</time>
      </trkpt>
      <trkpt lat="43.48186" lon="5.24275">
        <ele>45.8</ele>
        <time>2014-01-05T13:32:25Z</time>
      </trkpt>
      <trkpt lat="43.48188" lon="5.24279">
        <ele>46.28</ele>
        <time>2014-01-05T13:32:27Z</time>
      </trkpt>
      <trkpt lat="43.48187" lon="5.24303">
        <ele>45.8</ele>
        <time>2014-01-05T13:32:46Z</time>
      </trkpt>
      <trkpt lat="43.4819" lon="5.24321">
        <ele>44.84</ele>
        <time>2014-01-05T13:33:03Z</time>
      </trkpt>
      <trkpt lat="43.48192" lon="5.24331">
        <ele>44.36</ele>
        <time>2014-01-05T13:33:13Z</time>
      </trkpt>
      <trkpt lat="43.48191" lon="5.24339">
        <ele>43.4</ele>
        <time>2014-01-05T13:33:17Z</time>
      </trkpt>
      <trkpt lat="43.48188" lon="5.24363">
        <ele>45.32</ele>
        <time>2014-01-05T13:33:33Z</time>
      </trkpt>
      <trkpt lat="43.48182" lon="5.24379">
        <ele>46.76</ele>
        <time>2014-01-05T13:33:48Z</time>
      </trkpt>
      <trkpt lat="43.48179" lon="5.24386">
        <ele>46.76</ele>
        <time>2014-01-05T13:33:54Z</time>
      </trkpt>
      <trkpt lat="43.48175" lon="5.24391">
        <ele>47.72</ele>
        <time>2014-01-05T13:33:58Z</time>
      </trkpt>
      <trkpt lat="43.4817" lon="5.24401">
        <ele>47.24</ele>
        <time>2014-01-05T13:34:04Z</time>
      </trkpt>
      <trkpt lat="43.48166" lon="5.24407">
        <ele>48.2</ele>
        <time>2014-01-05T13:34:08Z</time>
      </trkpt>
      <trkpt lat="43.48163" lon="5.24414">
        <ele>48.2</ele>
        <time>2014-01-05T13:34:12Z</time>
      </trkpt>
      <trkpt lat="43.4816" lon="5.24441">
        <ele>48.2</ele>
        <time>2014-01-05T13:34:30Z</time>
      </trkpt>
      <trkpt lat="43.4816" lon="5.24442">
        <ele>48.2</ele>
        <time>2014-01-05T13:34:31Z</time>
      </trkpt>
      <trkpt lat="43.48159" lon="5.24465">
        <ele>50.13</ele>
        <time>2014-01-05T13:34:44Z</time>
      </trkpt>
      <trkpt lat="43.48152" lon="5.24498">
        <ele>51.09</ele>
        <time>2014-01-05T13:34:58Z</time>
      </trkpt>
      <trkpt lat="43.48149" lon="5.24514">
        <ele>51.09</ele>
        <time>2014-01-05T13:35:11Z</time>
      </trkpt>
      <trkpt lat="43.48148" lon="5.24529">
        <ele>52.05</ele>
        <time>2014-01-05T13:35:21Z</time>
      </trkpt>
      <trkpt lat="43.48148" lon="5.24537">
        <ele>52.53</ele>
        <time>2014-01-05T13:35:25Z</time>
      </trkpt>
      <trkpt lat="43.48149" lon="5.24547">
        <ele>53.01</ele>
        <time>2014-01-05T13:35:30Z</time>
      </trkpt>
      <trkpt lat="43.48143" lon="5.24562">
        <ele>53.97</ele>
        <time>2014-01-05T13:35:46Z</time>
      </trkpt>
      <trkpt lat="43.4814" lon="5.24568">
        <ele>53.97</ele>
        <time>2014-01-05T13:36:01Z</time>
      </trkpt>
      <trkpt lat="43.48139" lon="5.24571">
        <ele>53.97</ele>
        <time>2014-01-05T13:36:03Z</time>
      </trkpt>
      <trkpt lat="43.48127" lon="5.24587">
        <ele>55.41</ele>
        <time>2014-01-05T13:36:15Z</time>
      </trkpt>
      <trkpt lat="43.48121" lon="5.24608">
        <ele>56.86</ele>
        <time>2014-01-05T13:36:29Z</time>
      </trkpt>
      <trkpt lat="43.48113" lon="5.24628">
        <ele>57.82</ele>
        <time>2014-01-05T13:36:42Z</time>
      </trkpt>
      <trkpt lat="43.4811" lon="5.24641">
        <ele>58.78</ele>
        <time>2014-01-05T13:36:51Z</time>
      </trkpt>
      <trkpt lat="43.48108" lon="5.24645">
        <ele>58.3</ele>
        <time>2014-01-05T13:36:53Z</time>
      </trkpt>
      <trkpt lat="43.48105" lon="5.24664">
        <ele>59.26</ele>
        <time>2014-01-05T13:37:05Z</time>
      </trkpt>
      <trkpt lat="43.48105" lon="5.2468">
        <ele>58.3</ele>
        <time>2014-01-05T13:37:15Z</time>
      </trkpt>
      <trkpt lat="43.48098" lon="5.247">
        <ele>61.18</ele>
        <time>2014-01-05T13:37:29Z</time>
      </trkpt>
      <trkpt lat="43.48096" lon="5.24701">
        <ele>61.18</ele>
        <time>2014-01-05T13:37:32Z</time>
      </trkpt>
      <trkpt lat="43.48084" lon="5.24705">
        <ele>62.62</ele>
        <time>2014-01-05T13:37:42Z</time>
      </trkpt>
      <trkpt lat="43.48072" lon="5.24714">
        <ele>65.03</ele>
        <time>2014-01-05T13:37:54Z</time>
      </trkpt>
      <trkpt lat="43.48069" lon="5.2472">
        <ele>65.99</ele>
        <time>2014-01-05T13:37:59Z</time>
      </trkpt>
      <trkpt lat="43.48057" lon="5.2474">
        <ele>66.47</ele>
        <time>2014-01-05T13:38:13Z</time>
      </trkpt>
      <trkpt lat="43.48057" lon="5.24743">
        <ele>65.99</ele>
        <time>2014-01-05T13:38:15Z</time>
      </trkpt>
      <trkpt lat="43.48048" lon="5.24765">
        <ele>65.99</ele>
        <time>2014-01-05T13:38:31Z</time>
      </trkpt>
      <trkpt lat="43.48043" lon="5.24774">
        <ele>66.47</ele>
        <time>2014-01-05T13:38:38Z</time>
      </trkpt>
      <trkpt lat="43.48042" lon="5.24777">
        <ele>66.95</ele>
        <time>2014-01-05T13:38:40Z</time>
      </trkpt>
      <trkpt lat="43.48031" lon="5.24792">
        <ele>67.91</ele>
        <time>2014-01-05T13:38:54Z</time>
      </trkpt>
      <trkpt lat="43.48015" lon="5.24805">
        <ele>70.79</ele>
        <time>2014-01-05T13:39:08Z</time>
      </trkpt>
      <trkpt lat="43.48008" lon="5.24813">
        <ele>71.76</ele>
        <time>2014-01-05T13:39:16Z</time>
      </trkpt>
      <trkpt lat="43.48006" lon="5.24815">
        <ele>73.2</ele>
        <time>2014-01-05T13:39:19Z</time>
      </trkpt>
      <trkpt lat="43.48005" lon="5.24822">
        <ele>74.16</ele>
        <time>2014-01-05T13:39:32Z</time>
      </trkpt>
      <trkpt lat="43.47999" lon="5.2483">
        <ele>73.68</ele>
        <time>2014-01-05T13:39:46Z</time>
      </trkpt>
      <trkpt lat="43.47989" lon="5.24836">
        <ele>76.08</ele>
        <time>2014-01-05T13:39:57Z</time>
      </trkpt>
      <trkpt lat="43.47973" lon="5.24846">
        <ele>78.48</ele>
        <time>2014-01-05T13:40:13Z</time>
      </trkpt>
      <trkpt lat="43.47954" lon="5.24857">
        <ele>80.89</ele>
        <time>2014-01-05T13:40:31Z</time>
      </trkpt>
      <trkpt lat="43.47939" lon="5.24864">
        <ele>82.33</ele>
        <time>2014-01-05T13:40:46Z</time>
      </trkpt>
      <trkpt lat="43.47929" lon="5.24872">
        <ele>83.29</ele>
        <time>2014-01-05T13:41:04Z</time>
      </trkpt>
      <trkpt lat="43.4792" lon="5.24875">
        <ele>84.25</ele>
        <time>2014-01-05T13:41:15Z</time>
      </trkpt>
      <trkpt lat="43.47918" lon="5.24876">
        <ele>84.25</ele>
        <time>2014-01-05T13:41:16Z</time>
      </trkpt>
      <trkpt lat="43.47902" lon="5.24883">
        <ele>85.69</ele>
        <time>2014-01-05T13:41:30Z</time>
      </trkpt>
      <trkpt lat="43.47898" lon="5.24884">
        <ele>85.69</ele>
        <time>2014-01-05T13:41:33Z</time>
      </trkpt>
      <trkpt lat="43.47888" lon="5.24884">
        <ele>86.66</ele>
        <time>2014-01-05T13:41:40Z</time>
      </trkpt>
      <trkpt lat="43.47872" lon="5.24888">
        <ele>88.1</ele>
        <time>2014-01-05T13:41:54Z</time>
      </trkpt>
      <trkpt lat="43.47859" lon="5.24896">
        <ele>90.98</ele>
        <time>2014-01-05T13:42:04Z</time>
      </trkpt>
      <trkpt lat="43.47856" lon="5.24899">
        <ele>90.98</ele>
        <time>2014-01-05T13:42:06Z</time>
      </trkpt>
      <trkpt lat="43.47854" lon="5.24903">
        <ele>90.02</ele>
        <time>2014-01-05T13:42:09Z</time>
      </trkpt>
      <trkpt lat="43.47858" lon="5.24912">
        <ele>89.54</ele>
        <time>2014-01-05T13:42:17Z</time>
      </trkpt>
      <trkpt lat="43.47859" lon="5.24914">
        <ele>90.02</ele>
        <time>2014-01-05T13:42:18Z</time>
      </trkpt>
      <trkpt lat="43.4786" lon="5.24914">
        <ele>90.5</ele>
        <time>2014-01-05T13:42:21Z</time>
      </trkpt>
      <trkpt lat="43.47868" lon="5.24915">
        <ele>90.5</ele>
        <time>2014-01-05T13:42:31Z</time>
      </trkpt>
      <trkpt lat="43.47885" lon="5.24924">
        <ele>90.5</ele>
        <time>2014-01-05T13:42:45Z</time>
      </trkpt>
      <trkpt lat="43.47887" lon="5.24925">
        <ele>90.5</ele>
        <time>2014-01-05T13:42:47Z</time>
      </trkpt>
      <trkpt lat="43.47894" lon="5.24931">
        <ele>90.5</ele>
        <time>2014-01-05T13:42:53Z</time>
      </trkpt>
      <trkpt lat="43.47898" lon="5.24942">
        <ele>90.5</ele>
        <time>2014-01-05T13:43:02Z</time>
      </trkpt>
      <trkpt lat="43.47899" lon="5.24947">
        <ele>89.54</ele>
        <time>2014-01-05T13:43:06Z</time>
      </trkpt>
      <trkpt lat="43.4789" lon="5.24962">
        <ele>88.58</ele>
        <time>2014-01-05T13:43:18Z</time>
      </trkpt>
      <trkpt lat="43.47886" lon="5.2497">
        <ele>88.1</ele>
        <time>2014-01-05T13:43:24Z</time>
      </trkpt>
      <trkpt lat="43.47896" lon="5.24984">
        <ele>88.1</ele>
        <time>2014-01-05T13:43:33Z</time>
      </trkpt>
      <trkpt lat="43.47906" lon="5.24984">
        <ele>88.58</ele>
        <time>2014-01-05T13:43:38Z</time>
      </trkpt>
      <trkpt lat="43.47923" lon="5.24975">
        <ele>92.42</ele>
        <time>2014-01-05T13:43:52Z</time>
      </trkpt>
      <trkpt lat="43.47931" lon="5.24975">
        <ele>92.9</ele>
        <time>2014-01-05T13:44:00Z</time>
      </trkpt>
      <trkpt lat="43.47948" lon="5.24983">
        <ele>93.39</ele>
        <time>2014-01-05T13:44:14Z</time>
      </trkpt>
      <trkpt lat="43.47958" lon="5.24984">
        <ele>94.35</ele>
        <time>2014-01-05T13:44:26Z</time>
      </trkpt>
      <trkpt lat="43.47962" lon="5.24979">
        <ele>94.83</ele>
        <time>2014-01-05T13:44:31Z</time>
      </trkpt>
      <trkpt lat="43.47965" lon="5.24977">
        <ele>94.83</ele>
        <time>2014-01-05T13:44:34Z</time>
      </trkpt>
      <trkpt lat="43.4798" lon="5.24963">
        <ele>95.31</ele>
        <time>2014-01-05T13:44:50Z</time>
      </trkpt>
      <trkpt lat="43.47991" lon="5.24956">
        <ele>96.27</ele>
        <time>2014-01-05T13:45:02Z</time>
      </trkpt>
      <trkpt lat="43.48008" lon="5.24952">
        <ele>97.71</ele>
        <time>2014-01-05T13:45:17Z</time>
      </trkpt>
      <trkpt lat="43.48023" lon="5.24953">
        <ele>98.19</ele>
        <time>2014-01-05T13:45:30Z</time>
      </trkpt>
      <trkpt lat="43.48037" lon="5.24952">
        <ele>98.19</ele>
        <time>2014-01-05T13:45:43Z</time>
      </trkpt>
      <trkpt lat="43.48042" lon="5.24951">
        <ele>96.75</ele>
        <time>2014-01-05T13:45:48Z</time>
      </trkpt>
      <trkpt lat="43.48047" lon="5.24951">
        <ele>98.19</ele>
        <time>2014-01-05T13:45:52Z</time>
      </trkpt>
      <trkpt lat="43.48056" lon="5.24956">
        <ele>98.67</ele>
        <time>2014-01-05T13:45:59Z</time>
      </trkpt>
      <trkpt lat="43.48072" lon="5.2497">
        <ele>99.15</ele>
        <time>2014-01-05T13:46:14Z</time>
      </trkpt>
      <trkpt lat="43.48075" lon="5.24976">
        <ele>100.6</ele>
        <time>2014-01-05T13:46:19Z</time>
      </trkpt>
      <trkpt lat="43.48077" lon="5.24986">
        <ele>99.63</ele>
        <time>2014-01-05T13:46:25Z</time>
      </trkpt>
      <trkpt lat="43.48077" lon="5.24989">
        <ele>100.11</ele>
        <time>2014-01-05T13:46:27Z</time>
      </trkpt>
      <trkpt lat="43.48076" lon="5.24995">
        <ele>99.63</ele>
        <time>2014-01-05T13:46:31Z</time>
      </trkpt>
      <trkpt lat="43.48077" lon="5.25">
        <ele>99.63</ele>
        <time>2014-01-05T13:46:34Z</time>
      </trkpt>
      <trkpt lat="43.4808" lon="5.25015">
        <ele>98.19</ele>
        <time>2014-01-05T13:46:46Z</time>
      </trkpt>
      <trkpt lat="43.4808" lon="5.25019">
        <ele>99.15</ele>
        <time>2014-01-05T13:46:51Z</time>
      </trkpt>
      <trkpt lat="43.48076" lon="5.25036">
        <ele>98.67</ele>
        <time>2014-01-05T13:47:03Z</time>
      </trkpt>
      <trkpt lat="43.48076" lon="5.25039">
        <ele>98.19</ele>
        <time>2014-01-05T13:47:05Z</time>
      </trkpt>
      <trkpt lat="43.48079" lon="5.2505">
        <ele>98.19</ele>
        <time>2014-01-05T13:47:12Z</time>
      </trkpt>
      <trkpt lat="43.48091" lon="5.25065">
        <ele>98.67</ele>
        <time>2014-01-05T13:47:26Z</time>
      </trkpt>
      <trkpt lat="43.48102" lon="5.25069">
        <ele>95.79</ele>
        <time>2014-01-05T13:47:42Z</time>
      </trkpt>
      <trkpt lat="43.48118" lon="5.25078">
        <ele>95.31</ele>
        <time>2014-01-05T13:47:57Z</time>
      </trkpt>
      <trkpt lat="43.4813" lon="5.25094">
        <ele>95.31</ele>
        <time>2014-01-05T13:48:12Z</time>
      </trkpt>
      <trkpt lat="43.48134" lon="5.2511">
        <ele>93.87</ele>
        <time>2014-01-05T13:48:23Z</time>
      </trkpt>
      <trkpt lat="43.48135" lon="5.25114">
        <ele>93.39</ele>
        <time>2014-01-05T13:48:26Z</time>
      </trkpt>
      <trkpt lat="43.48126" lon="5.25133">
        <ele>94.83</ele>
        <time>2014-01-05T13:48:40Z</time>
      </trkpt>
      <trkpt lat="43.48124" lon="5.25139">
        <ele>95.31</ele>
        <time>2014-01-05T13:48:45Z</time>
      </trkpt>
      <trkpt lat="43.48124" lon="5.25147">
        <ele>96.27</ele>
        <time>2014-01-05T13:48:49Z</time>
      </trkpt>
      <trkpt lat="43.48118" lon="5.25166">
        <ele>99.15</ele>
        <time>2014-01-05T13:49:05Z</time>
      </trkpt>
      <trkpt lat="43.48111" lon="5.25178">
        <ele>101.56</ele>
        <time>2014-01-05T13:49:17Z</time>
      </trkpt>
      <trkpt lat="43.48106" lon="5.25183">
        <ele>101.56</ele>
        <time>2014-01-05T13:49:24Z</time>
      </trkpt>
      <trkpt lat="43.48095" lon="5.25195">
        <ele>103.96</ele>
        <time>2014-01-05T13:49:39Z</time>
      </trkpt>
      <trkpt lat="43.48087" lon="5.25201">
        <ele>107.32</ele>
        <time>2014-01-05T13:49:50Z</time>
      </trkpt>
      <trkpt lat="43.4808" lon="5.25208">
        <ele>109.73</ele>
        <time>2014-01-05T13:50:03Z</time>
      </trkpt>
      <trkpt lat="43.48067" lon="5.25216">
        <ele>112.13</ele>
        <time>2014-01-05T13:50:17Z</time>
      </trkpt>
      <trkpt lat="43.48061" lon="5.2522">
        <ele>112.61</ele>
        <time>2014-01-05T13:50:34Z</time>
      </trkpt>
      <trkpt lat="43.4805" lon="5.25221">
        <ele>114.05</ele>
        <time>2014-01-05T13:51:04Z</time>
      </trkpt>
      <trkpt lat="43.48044" lon="5.25227">
        <ele>112.61</ele>
        <time>2014-01-05T13:51:11Z</time>
      </trkpt>
      <trkpt lat="43.48034" lon="5.25249">
        <ele>112.61</ele>
        <time>2014-01-05T13:51:29Z</time>
      </trkpt>
      <trkpt lat="43.48033" lon="5.25253">
        <ele>112.61</ele>
        <time>2014-01-05T13:51:32Z</time>
      </trkpt>
      <trkpt lat="43.4803" lon="5.25265">
        <ele>112.13</ele>
        <time>2014-01-05T13:51:41Z</time>
      </trkpt>
      <trkpt lat="43.48024" lon="5.25282">
        <ele>111.17</ele>
        <time>2014-01-05T13:51:55Z</time>
      </trkpt>
      <trkpt lat="43.4802" lon="5.2529">
        <ele>111.17</ele>
        <time>2014-01-05T13:52:03Z</time>
      </trkpt>
      <trkpt lat="43.48013" lon="5.25296">
        <ele>111.65</ele>
        <time>2014-01-05T13:52:11Z</time>
      </trkpt>
      <trkpt lat="43.48002" lon="5.2531">
        <ele>115.01</ele>
        <time>2014-01-05T13:52:26Z</time>
      </trkpt>
      <trkpt lat="43.47992" lon="5.25321">
        <ele>116.94</ele>
        <time>2014-01-05T13:52:39Z</time>
      </trkpt>
      <trkpt lat="43.47983" lon="5.25329">
        <ele>117.9</ele>
        <time>2014-01-05T13:52:51Z</time>
      </trkpt>
      <trkpt lat="43.47972" lon="5.25338">
        <ele>119.82</ele>
        <time>2014-01-05T13:53:06Z</time>
      </trkpt>
      <trkpt lat="43.47973" lon="5.25339">
        <ele>123.19</ele>
        <time>2014-01-05T13:53:24Z</time>
      </trkpt>
      <trkpt lat="43.4797" lon="5.25339">
        <ele>120.78</ele>
        <time>2014-01-05T13:53:43Z</time>
      </trkpt>
      <trkpt lat="43.47971" lon="5.25348">
        <ele>120.78</ele>
        <time>2014-01-05T13:54:06Z</time>
      </trkpt>
      <trkpt lat="43.47978" lon="5.25356">
        <ele>120.78</ele>
        <time>2014-01-05T13:54:15Z</time>
      </trkpt>
      <trkpt lat="43.47993" lon="5.2536">
        <ele>120.78</ele>
        <time>2014-01-05T13:54:29Z</time>
      </trkpt>
      <trkpt lat="43.48002" lon="5.25365">
        <ele>122.22</ele>
        <time>2014-01-05T13:54:38Z</time>
      </trkpt>
      <trkpt lat="43.48013" lon="5.25378">
        <ele>123.19</ele>
        <time>2014-01-05T13:54:52Z</time>
      </trkpt>
      <trkpt lat="43.48014" lon="5.2538">
        <ele>122.71</ele>
        <time>2014-01-05T13:54:54Z</time>
      </trkpt>
      <trkpt lat="43.48026" lon="5.25399">
        <ele>124.15</ele>
        <time>2014-01-05T13:55:12Z</time>
      </trkpt>
      <trkpt lat="43.48041" lon="5.25409">
        <ele>123.19</ele>
        <time>2014-01-05T13:55:28Z</time>
      </trkpt>
      <trkpt lat="43.48048" lon="5.25411">
        <ele>124.15</ele>
        <time>2014-01-05T13:55:35Z</time>
      </trkpt>
      <trkpt lat="43.4806" lon="5.25415">
        <ele>123.19</ele>
        <time>2014-01-05T13:55:47Z</time>
      </trkpt>
      <trkpt lat="43.48064" lon="5.25417">
        <ele>122.71</ele>
        <time>2014-01-05T13:55:50Z</time>
      </trkpt>
      <trkpt lat="43.48066" lon="5.25425">
        <ele>121.74</ele>
        <time>2014-01-05T13:55:57Z</time>
      </trkpt>
      <trkpt lat="43.48071" lon="5.25426">
        <ele>122.71</ele>
        <time>2014-01-05T13:56:02Z</time>
      </trkpt>
      <trkpt lat="43.48078" lon="5.25427">
        <ele>122.71</ele>
        <time>2014-01-05T13:56:10Z</time>
      </trkpt>
      <trkpt lat="43.48082" lon="5.2543">
        <ele>122.22</ele>
        <time>2014-01-05T13:56:14Z</time>
      </trkpt>
      <trkpt lat="43.48095" lon="5.25435">
        <ele>122.71</ele>
        <time>2014-01-05T13:56:30Z</time>
      </trkpt>
      <trkpt lat="43.48111" lon="5.25444">
        <ele>121.26</ele>
        <time>2014-01-05T13:56:45Z</time>
      </trkpt>
      <trkpt lat="43.48115" lon="5.25446">
        <ele>123.67</ele>
        <time>2014-01-05T13:56:49Z</time>
      </trkpt>
      <trkpt lat="43.48131" lon="5.25453">
        <ele>124.15</ele>
        <time>2014-01-05T13:57:04Z</time>
      </trkpt>
      <trkpt lat="43.48148" lon="5.25452">
        <ele>125.59</ele>
        <time>2014-01-05T13:57:21Z</time>
      </trkpt>
      <trkpt lat="43.48163" lon="5.25448">
        <ele>125.11</ele>
        <time>2014-01-05T13:57:36Z</time>
      </trkpt>
      <trkpt lat="43.48178" lon="5.25441">
        <ele>126.07</ele>
        <time>2014-01-05T13:57:50Z</time>
      </trkpt>
      <trkpt lat="43.4818" lon="5.2544">
        <ele>125.59</ele>
        <time>2014-01-05T13:58:07Z</time>
      </trkpt>
      <trkpt lat="43.48179" lon="5.25441">
        <ele>127.03</ele>
        <time>2014-01-05T13:58:39Z</time>
      </trkpt>
      <trkpt lat="43.48181" lon="5.25442">
        <ele>127.51</ele>
        <time>2014-01-05T13:59:16Z</time>
      </trkpt>
      <trkpt lat="43.48192" lon="5.25438">
        <ele>126.55</ele>
        <time>2014-01-05T13:59:30Z</time>
      </trkpt>
      <trkpt lat="43.48207" lon="5.25434">
        <ele>127.51</ele>
        <time>2014-01-05T13:59:45Z</time>
      </trkpt>
      <trkpt lat="43.48216" lon="5.25437">
        <ele>127.03</ele>
        <time>2014-01-05T13:59:53Z</time>
      </trkpt>
      <trkpt lat="43.48227" lon="5.25451">
        <ele>125.11</ele>
        <time>2014-01-05T14:00:07Z</time>
      </trkpt>
      <trkpt lat="43.48224" lon="5.2547">
        <ele>127.51</ele>
        <time>2014-01-05T14:00:20Z</time>
      </trkpt>
      <trkpt lat="43.48224" lon="5.25484">
        <ele>127.99</ele>
        <time>2014-01-05T14:00:33Z</time>
      </trkpt>
      <trkpt lat="43.48227" lon="5.25492">
        <ele>127.99</ele>
        <time>2014-01-05T14:00:48Z</time>
      </trkpt>
      <trkpt lat="43.48232" lon="5.25508">
        <ele>128.47</ele>
        <time>2014-01-05T14:01:02Z</time>
      </trkpt>
      <trkpt lat="43.48239" lon="5.2552">
        <ele>128.95</ele>
        <time>2014-01-05T14:01:18Z</time>
      </trkpt>
      <trkpt lat="43.48239" lon="5.25532">
        <ele>129.43</ele>
        <time>2014-01-05T14:01:32Z</time>
      </trkpt>
      <trkpt lat="43.48242" lon="5.25539">
        <ele>130.4</ele>
        <time>2014-01-05T14:01:42Z</time>
      </trkpt>
      <trkpt lat="43.48242" lon="5.25539">
        <ele>131.36</ele>
        <time>2014-01-05T14:02:00Z</time>
      </trkpt>
      <trkpt lat="43.48241" lon="5.25536">
        <ele>131.84</ele>
        <time>2014-01-05T14:02:04Z</time>
      </trkpt>
      <trkpt lat="43.48238" lon="5.25539">
        <ele>130.88</ele>
        <time>2014-01-05T14:02:24Z</time>
      </trkpt>
      <trkpt lat="43.48237" lon="5.25533">
        <ele>129.92</ele>
        <time>2014-01-05T14:02:46Z</time>
      </trkpt>
      <trkpt lat="43.48237" lon="5.25526">
        <ele>129.92</ele>
        <time>2014-01-05T14:02:54Z</time>
      </trkpt>
      <trkpt lat="43.48229" lon="5.2551">
        <ele>128.95</ele>
        <time>2014-01-05T14:03:10Z</time>
      </trkpt>
      <trkpt lat="43.48227" lon="5.25499">
        <ele>128.47</ele>
        <time>2014-01-05T14:03:23Z</time>
      </trkpt>
      <trkpt lat="43.48226" lon="5.25498">
        <ele>128.47</ele>
        <time>2014-01-05T14:03:27Z</time>
      </trkpt>
      <trkpt lat="43.48222" lon="5.25476">
        <ele>127.51</ele>
        <time>2014-01-05T14:03:45Z</time>
      </trkpt>
      <trkpt lat="43.48221" lon="5.25474">
        <ele>127.99</ele>
        <time>2014-01-05T14:03:47Z</time>
      </trkpt>
      <trkpt lat="43.48222" lon="5.25462">
        <ele>127.99</ele>
        <time>2014-01-05T14:04:01Z</time>
      </trkpt>
      <trkpt lat="43.48222" lon="5.25464">
        <ele>127.03</ele>
        <time>2014-01-05T14:04:18Z</time>
      </trkpt>
      <trkpt lat="43.48225" lon="5.25459">
        <ele>127.99</ele>
        <time>2014-01-05T14:04:42Z</time>
      </trkpt>
      <trkpt lat="43.48225" lon="5.25458">
        <ele>128.47</ele>
        <time>2014-01-05T14:04:43Z</time>
      </trkpt>
      <trkpt lat="43.48228" lon="5.25455">
        <ele>126.55</ele>
        <time>2014-01-05T14:04:46Z</time>
      </trkpt>
      <trkpt lat="43.4823" lon="5.25452">
        <ele>127.51</ele>
        <time>2014-01-05T14:04:49Z</time>
      </trkpt>
      <trkpt lat="43.48235" lon="5.2545">
        <ele>127.51</ele>
        <time>2014-01-05T14:04:57Z</time>
      </trkpt>
      <trkpt lat="43.48238" lon="5.25449">
        <ele>127.99</ele>
        <time>2014-01-05T14:05:10Z</time>
      </trkpt>
      <trkpt lat="43.4824" lon="5.2545">
        <ele>127.51</ele>
        <time>2014-01-05T14:05:23Z</time>
      </trkpt>
      <trkpt lat="43.48241" lon="5.25449">
        <ele>127.99</ele>
        <time>2014-01-05T14:05:28Z</time>
      </trkpt>
      <trkpt lat="43.48246" lon="5.25449">
        <ele>126.55</ele>
        <time>2014-01-05T14:05:33Z</time>
      </trkpt>
      <trkpt lat="43.48256" lon="5.2544">
        <ele>127.51</ele>
        <time>2014-01-05T14:05:48Z</time>
      </trkpt>
      <trkpt lat="43.48257" lon="5.25439">
        <ele>127.51</ele>
        <time>2014-01-05T14:05:49Z</time>
      </trkpt>
      <trkpt lat="43.48263" lon="5.25435">
        <ele>127.03</ele>
        <time>2014-01-05T14:05:57Z</time>
      </trkpt>
      <trkpt lat="43.48275" lon="5.25423">
        <ele>128.95</ele>
        <time>2014-01-05T14:06:12Z</time>
      </trkpt>
      <trkpt lat="43.48286" lon="5.25417">
        <ele>130.4</ele>
        <time>2014-01-05T14:06:24Z</time>
      </trkpt>
      <trkpt lat="43.48288" lon="5.25417">
        <ele>130.88</ele>
        <time>2014-01-05T14:06:26Z</time>
      </trkpt>
      <trkpt lat="43.48294" lon="5.25416">
        <ele>134.24</ele>
        <time>2014-01-05T14:06:42Z</time>
      </trkpt>
      <trkpt lat="43.48301" lon="5.25413">
        <ele>133.76</ele>
        <time>2014-01-05T14:06:58Z</time>
      </trkpt>
      <trkpt lat="43.48308" lon="5.25411">
        <ele>133.76</ele>
        <time>2014-01-05T14:07:11Z</time>
      </trkpt>
      <trkpt lat="43.48308" lon="5.2541">
        <ele>133.76</ele>
        <time>2014-01-05T14:07:12Z</time>
      </trkpt>
      <trkpt lat="43.48312" lon="5.25409">
        <ele>134.24</ele>
        <time>2014-01-05T14:07:16Z</time>
      </trkpt>
      <trkpt lat="43.48326" lon="5.25405">
        <ele>135.2</ele>
        <time>2014-01-05T14:07:30Z</time>
      </trkpt>
      <trkpt lat="43.48342" lon="5.25404">
        <ele>136.16</ele>
        <time>2014-01-05T14:07:46Z</time>
      </trkpt>
      <trkpt lat="43.48357" lon="5.25401">
        <ele>136.64</ele>
        <time>2014-01-05T14:07:59Z</time>
      </trkpt>
      <trkpt lat="43.48359" lon="5.254">
        <ele>135.68</ele>
        <time>2014-01-05T14:08:01Z</time>
      </trkpt>
      <trkpt lat="43.48362" lon="5.25399">
        <ele>135.68</ele>
        <time>2014-01-05T14:08:04Z</time>
      </trkpt>
      <trkpt lat="43.4838" lon="5.25393">
        <ele>135.68</ele>
        <time>2014-01-05T14:08:20Z</time>
      </trkpt>
      <trkpt lat="43.48397" lon="5.25392">
        <ele>137.13</ele>
        <time>2014-01-05T14:08:35Z</time>
      </trkpt>
      <trkpt lat="43.484" lon="5.25391">
        <ele>138.09</ele>
        <time>2014-01-05T14:08:38Z</time>
      </trkpt>
      <trkpt lat="43.48403" lon="5.25391">
        <ele>135.68</ele>
        <time>2014-01-05T14:08:41Z</time>
      </trkpt>
      <trkpt lat="43.48419" lon="5.2539">
        <ele>138.57</ele>
        <time>2014-01-05T14:08:55Z</time>
      </trkpt>
      <trkpt lat="43.48421" lon="5.25389">
        <ele>136.64</ele>
        <time>2014-01-05T14:08:57Z</time>
      </trkpt>
      <trkpt lat="43.48435" lon="5.25391">
        <ele>136.64</ele>
        <time>2014-01-05T14:09:10Z</time>
      </trkpt>
      <trkpt lat="43.48449" lon="5.25393">
        <ele>135.68</ele>
        <time>2014-01-05T14:09:24Z</time>
      </trkpt>
      <trkpt lat="43.48459" lon="5.25392">
        <ele>135.68</ele>
        <time>2014-01-05T14:09:34Z</time>
      </trkpt>
      <trkpt lat="43.48467" lon="5.2539">
        <ele>135.68</ele>
        <time>2014-01-05T14:09:43Z</time>
      </trkpt>
      <trkpt lat="43.48472" lon="5.2539">
        <ele>135.2</ele>
        <time>2014-01-05T14:09:47Z</time>
      </trkpt>
      <trkpt lat="43.48484" lon="5.25387">
        <ele>135.68</ele>
        <time>2014-01-05T14:09:58Z</time>
      </trkpt>
      <trkpt lat="43.48498" lon="5.25382">
        <ele>137.13</ele>
        <time>2014-01-05T14:10:12Z</time>
      </trkpt>
      <trkpt lat="43.48518" lon="5.25379">
        <ele>138.57</ele>
        <time>2014-01-05T14:10:30Z</time>
      </trkpt>
      <trkpt lat="43.48528" lon="5.2538">
        <ele>139.53</ele>
        <time>2014-01-05T14:10:39Z</time>
      </trkpt>
      <trkpt lat="43.48533" lon="5.25381">
        <ele>140.01</ele>
        <time>2014-01-05T14:10:53Z</time>
      </trkpt>
      <trkpt lat="43.48544" lon="5.25388">
        <ele>140.01</ele>
        <time>2014-01-05T14:11:13Z</time>
      </trkpt>
      <trkpt lat="43.4856" lon="5.25387">
        <ele>140.49</ele>
        <time>2014-01-05T14:11:28Z</time>
      </trkpt>
      <trkpt lat="43.48568" lon="5.25382">
        <ele>141.93</ele>
        <time>2014-01-05T14:11:37Z</time>
      </trkpt>
      <trkpt lat="43.48571" lon="5.25382">
        <ele>141.93</ele>
        <time>2014-01-05T14:11:40Z</time>
      </trkpt>
      <trkpt lat="43.48573" lon="5.25381">
        <ele>141.93</ele>
        <time>2014-01-05T14:11:42Z</time>
      </trkpt>
      <trkpt lat="43.48583" lon="5.25376">
        <ele>142.41</ele>
        <time>2014-01-05T14:11:52Z</time>
      </trkpt>
      <trkpt lat="43.48591" lon="5.25364">
        <ele>141.93</ele>
        <time>2014-01-05T14:12:05Z</time>
      </trkpt>
      <trkpt lat="43.48595" lon="5.25349">
        <ele>142.41</ele>
        <time>2014-01-05T14:12:17Z</time>
      </trkpt>
      <trkpt lat="43.48607" lon="5.25338">
        <ele>143.37</ele>
        <time>2014-01-05T14:12:30Z</time>
      </trkpt>
      <trkpt lat="43.4861" lon="5.25335">
        <ele>144.34</ele>
        <time>2014-01-05T14:12:33Z</time>
      </trkpt>
      <trkpt lat="43.48619" lon="5.2532">
        <ele>146.74</ele>
        <time>2014-01-05T14:12:47Z</time>
      </trkpt>
      <trkpt lat="43.4862" lon="5.25315">
        <ele>147.22</ele>
        <time>2014-01-05T14:13:05Z</time>
      </trkpt>
      <trkpt lat="43.48625" lon="5.25306">
        <ele>148.18</ele>
        <time>2014-01-05T14:13:24Z</time>
      </trkpt>
      <trkpt lat="43.48629" lon="5.25296">
        <ele>148.66</ele>
        <time>2014-01-05T14:13:32Z</time>
      </trkpt>
      <trkpt lat="43.48638" lon="5.25276">
        <ele>150.58</ele>
        <time>2014-01-05T14:13:49Z</time>
      </trkpt>
      <trkpt lat="43.48644" lon="5.25258">
        <ele>150.1</ele>
        <time>2014-01-05T14:14:02Z</time>
      </trkpt>
      <trkpt lat="43.48648" lon="5.25239">
        <ele>149.62</ele>
        <time>2014-01-05T14:14:16Z</time>
      </trkpt>
      <trkpt lat="43.4865" lon="5.25232">
        <ele>148.66</ele>
        <time>2014-01-05T14:14:30Z</time>
      </trkpt>
      <trkpt lat="43.48658" lon="5.2522">
        <ele>148.18</ele>
        <time>2014-01-05T14:14:43Z</time>
      </trkpt>
      <trkpt lat="43.48671" lon="5.25208">
        <ele>148.18</ele>
        <time>2014-01-05T14:14:59Z</time>
      </trkpt>
      <trkpt lat="43.48684" lon="5.25195">
        <ele>148.66</ele>
        <time>2014-01-05T14:15:14Z</time>
      </trkpt>
      <trkpt lat="43.48689" lon="5.25184">
        <ele>148.66</ele>
        <time>2014-01-05T14:15:23Z</time>
      </trkpt>
      <trkpt lat="43.4869" lon="5.25182">
        <ele>148.66</ele>
        <time>2014-01-05T14:15:25Z</time>
      </trkpt>
      <trkpt lat="43.48692" lon="5.25178">
        <ele>149.14</ele>
        <time>2014-01-05T14:15:28Z</time>
      </trkpt>
      <trkpt lat="43.48693" lon="5.25175">
        <ele>148.66</ele>
        <time>2014-01-05T14:15:30Z</time>
      </trkpt>
      <trkpt lat="43.48695" lon="5.25172">
        <ele>149.62</ele>
        <time>2014-01-05T14:15:33Z</time>
      </trkpt>
      <trkpt lat="43.48701" lon="5.25157">
        <ele>149.14</ele>
        <time>2014-01-05T14:15:45Z</time>
      </trkpt>
      <trkpt lat="43.48702" lon="5.25154">
        <ele>149.62</ele>
        <time>2014-01-05T14:15:47Z</time>
      </trkpt>
      <trkpt lat="43.48706" lon="5.25143">
        <ele>149.62</ele>
        <time>2014-01-05T14:15:55Z</time>
      </trkpt>
      <trkpt lat="43.4871" lon="5.25128">
        <ele>149.62</ele>
        <time>2014-01-05T14:16:06Z</time>
      </trkpt>
      <trkpt lat="43.48716" lon="5.25111">
        <ele>149.62</ele>
        <time>2014-01-05T14:16:19Z</time>
      </trkpt>
      <trkpt lat="43.48726" lon="5.25098">
        <ele>149.14</ele>
        <time>2014-01-05T14:16:31Z</time>
      </trkpt>
      <trkpt lat="43.48741" lon="5.25087">
        <ele>150.1</ele>
        <time>2014-01-05T14:16:45Z</time>
      </trkpt>
      <trkpt lat="43.48742" lon="5.25086">
        <ele>150.1</ele>
        <time>2014-01-05T14:16:46Z</time>
      </trkpt>
      <trkpt lat="43.48755" lon="5.25076">
        <ele>150.58</ele>
        <time>2014-01-05T14:17:00Z</time>
      </trkpt>
      <trkpt lat="43.48764" lon="5.25068">
        <ele>151.06</ele>
        <time>2014-01-05T14:17:16Z</time>
      </trkpt>
      <trkpt lat="43.48769" lon="5.25061">
        <ele>152.03</ele>
        <time>2014-01-05T14:17:34Z</time>
      </trkpt>
      <trkpt lat="43.48771" lon="5.25058">
        <ele>151.54</ele>
        <time>2014-01-05T14:17:41Z</time>
      </trkpt>
      <trkpt lat="43.48774" lon="5.25047">
        <ele>152.51</ele>
        <time>2014-01-05T14:17:57Z</time>
      </trkpt>
      <trkpt lat="43.48773" lon="5.25045">
        <ele>152.51</ele>
        <time>2014-01-05T14:18:19Z</time>
      </trkpt>
      <trkpt lat="43.48774" lon="5.25044">
        <ele>153.47</ele>
        <time>2014-01-05T14:18:22Z</time>
      </trkpt>
      <trkpt lat="43.4878" lon="5.25027">
        <ele>153.95</ele>
        <time>2014-01-05T14:18:35Z</time>
      </trkpt>
      <trkpt lat="43.48787" lon="5.2501">
        <ele>153.95</ele>
        <time>2014-01-05T14:18:48Z</time>
      </trkpt>
      <trkpt lat="43.48799" lon="5.24993">
        <ele>155.39</ele>
        <time>2014-01-05T14:19:04Z</time>
      </trkpt>
      <trkpt lat="43.48805" lon="5.24978">
        <ele>154.91</ele>
        <time>2014-01-05T14:19:16Z</time>
      </trkpt>
      <trkpt lat="43.48812" lon="5.24964">
        <ele>157.31</ele>
        <time>2014-01-05T14:19:28Z</time>
      </trkpt>
      <trkpt lat="43.48819" lon="5.24955">
        <ele>157.79</ele>
        <time>2014-01-05T14:19:37Z</time>
      </trkpt>
      <trkpt lat="43.48836" lon="5.24951">
        <ele>158.27</ele>
        <time>2014-01-05T14:19:53Z</time>
      </trkpt>
      <trkpt lat="43.48837" lon="5.2495">
        <ele>157.79</ele>
        <time>2014-01-05T14:19:54Z</time>
      </trkpt>
      <trkpt lat="43.4885" lon="5.24945">
        <ele>158.75</ele>
        <time>2014-01-05T14:20:07Z</time>
      </trkpt>
      <trkpt lat="43.4886" lon="5.24936">
        <ele>159.72</ele>
        <time>2014-01-05T14:20:18Z</time>
      </trkpt>
      <trkpt lat="43.48877" lon="5.24929">
        <ele>161.16</ele>
        <time>2014-01-05T14:20:35Z</time>
      </trkpt>
      <trkpt lat="43.48894" lon="5.24924">
        <ele>161.64</ele>
        <time>2014-01-05T14:20:52Z</time>
      </trkpt>
      <trkpt lat="43.48902" lon="5.24921">
        <ele>161.64</ele>
        <time>2014-01-05T14:21:01Z</time>
      </trkpt>
      <trkpt lat="43.48914" lon="5.24907">
        <ele>162.6</ele>
        <time>2014-01-05T14:21:17Z</time>
      </trkpt>
      <trkpt lat="43.48914" lon="5.24905">
        <ele>162.12</ele>
        <time>2014-01-05T14:21:31Z</time>
      </trkpt>
      <trkpt lat="43.48921" lon="5.24892">
        <ele>163.56</ele>
        <time>2014-01-05T14:21:47Z</time>
      </trkpt>
      <trkpt lat="43.48922" lon="5.24891">
        <ele>164.04</ele>
        <time>2014-01-05T14:21:50Z</time>
      </trkpt>
      <trkpt lat="43.48934" lon="5.24874">
        <ele>164.52</ele>
        <time>2014-01-05T14:22:07Z</time>
      </trkpt>
      <trkpt lat="43.48945" lon="5.24862">
        <ele>164.52</ele>
        <time>2014-01-05T14:22:20Z</time>
      </trkpt>
      <trkpt lat="43.48956" lon="5.24848">
        <ele>164.04</ele>
        <time>2014-01-05T14:22:34Z</time>
      </trkpt>
      <trkpt lat="43.48964" lon="5.24828">
        <ele>163.08</ele>
        <time>2014-01-05T14:22:48Z</time>
      </trkpt>
      <trkpt lat="43.48969" lon="5.24815">
        <ele>164.52</ele>
        <time>2014-01-05T14:22:59Z</time>
      </trkpt>
      <trkpt lat="43.48971" lon="5.24795">
        <ele>164.52</ele>
        <time>2014-01-05T14:23:13Z</time>
      </trkpt>
      <trkpt lat="43.48973" lon="5.24772">
        <ele>166.93</ele>
        <time>2014-01-05T14:23:29Z</time>
      </trkpt>
      <trkpt lat="43.48981" lon="5.2475">
        <ele>166.45</ele>
        <time>2014-01-05T14:23:44Z</time>
      </trkpt>
      <trkpt lat="43.48991" lon="5.24729">
        <ele>166.45</ele>
        <time>2014-01-05T14:24:00Z</time>
      </trkpt>
      <trkpt lat="43.49001" lon="5.2471">
        <ele>166.45</ele>
        <time>2014-01-05T14:24:16Z</time>
      </trkpt>
      <trkpt lat="43.49014" lon="5.24703">
        <ele>167.89</ele>
        <time>2014-01-05T14:24:28Z</time>
      </trkpt>
      <trkpt lat="43.49022" lon="5.24693">
        <ele>168.37</ele>
        <time>2014-01-05T14:24:38Z</time>
      </trkpt>
      <trkpt lat="43.49021" lon="5.24669">
        <ele>169.33</ele>
        <time>2014-01-05T14:24:54Z</time>
      </trkpt>
      <trkpt lat="43.4902" lon="5.24644">
        <ele>168.85</ele>
        <time>2014-01-05T14:25:11Z</time>
      </trkpt>
      <trkpt lat="43.49021" lon="5.2462">
        <ele>169.81</ele>
        <time>2014-01-05T14:25:27Z</time>
      </trkpt>
      <trkpt lat="43.49022" lon="5.24595">
        <ele>170.77</ele>
        <time>2014-01-05T14:25:44Z</time>
      </trkpt>
      <trkpt lat="43.49022" lon="5.24582">
        <ele>171.25</ele>
        <time>2014-01-05T14:25:53Z</time>
      </trkpt>
      <trkpt lat="43.49028" lon="5.2456">
        <ele>171.73</ele>
        <time>2014-01-05T14:26:09Z</time>
      </trkpt>
      <trkpt lat="43.49039" lon="5.24541">
        <ele>172.21</ele>
        <time>2014-01-05T14:26:24Z</time>
      </trkpt>
      <trkpt lat="43.4905" lon="5.24516">
        <ele>173.66</ele>
        <time>2014-01-05T14:26:43Z</time>
      </trkpt>
      <trkpt lat="43.49057" lon="5.24495">
        <ele>173.66</ele>
        <time>2014-01-05T14:26:59Z</time>
      </trkpt>
      <trkpt lat="43.4906" lon="5.24483">
        <ele>177.02</ele>
        <time>2014-01-05T14:27:08Z</time>
      </trkpt>
      <trkpt lat="43.4906" lon="5.24481">
        <ele>177.02</ele>
        <time>2014-01-05T14:27:09Z</time>
      </trkpt>
      <trkpt lat="43.4906" lon="5.24463">
        <ele>176.06</ele>
        <time>2014-01-05T14:27:24Z</time>
      </trkpt>
      <trkpt lat="43.49059" lon="5.24457">
        <ele>177.02</ele>
        <time>2014-01-05T14:27:28Z</time>
      </trkpt>
      <trkpt lat="43.49056" lon="5.2445">
        <ele>179.42</ele>
        <time>2014-01-05T14:27:36Z</time>
      </trkpt>
      <trkpt lat="43.49058" lon="5.24442">
        <ele>182.79</ele>
        <time>2014-01-05T14:27:45Z</time>
      </trkpt>
      <trkpt lat="43.49059" lon="5.24441">
        <ele>182.79</ele>
        <time>2014-01-05T14:27:46Z</time>
      </trkpt>
      <trkpt lat="43.49059" lon="5.24439">
        <ele>180.38</ele>
        <time>2014-01-05T14:27:49Z</time>
      </trkpt>
      <trkpt lat="43.49059" lon="5.24439">
        <ele>178.46</ele>
        <time>2014-01-05T14:27:52Z</time>
      </trkpt>
      <trkpt lat="43.49058" lon="5.24439">
        <ele>186.15</ele>
        <time>2014-01-05T14:27:55Z</time>
      </trkpt>
      <trkpt lat="43.49059" lon="5.24439">
        <ele>182.79</ele>
        <time>2014-01-05T14:27:56Z</time>
      </trkpt>
      <trkpt lat="43.49058" lon="5.24439">
        <ele>179.42</ele>
        <time>2014-01-05T14:27:59Z</time>
      </trkpt>
      <trkpt lat="43.49057" lon="5.2444">
        <ele>178.94</ele>
        <time>2014-01-05T14:28:00Z</time>
      </trkpt>
      <trkpt lat="43.49056" lon="5.24438">
        <ele>177.5</ele>
        <time>2014-01-05T14:28:12Z</time>
      </trkpt>
      <trkpt lat="43.49055" lon="5.24438">
        <ele>177.02</ele>
        <time>2014-01-05T14:28:27Z</time>
      </trkpt>
      <trkpt lat="43.49055" lon="5.24442">
        <ele>177.02</ele>
        <time>2014-01-05T14:28:32Z</time>
      </trkpt>
      <trkpt lat="43.49055" lon="5.24444">
        <ele>178.94</ele>
        <time>2014-01-05T14:28:35Z</time>
      </trkpt>
      <trkpt lat="43.49052" lon="5.24449">
        <ele>177.98</ele>
        <time>2014-01-05T14:28:49Z</time>
      </trkpt>
      <trkpt lat="43.49051" lon="5.24447">
        <ele>177.02</ele>
        <time>2014-01-05T14:29:02Z</time>
      </trkpt>
      <trkpt lat="43.49053" lon="5.24448">
        <ele>175.1</ele>
        <time>2014-01-05T14:29:27Z</time>
      </trkpt>
      <trkpt lat="43.49054" lon="5.24448">
        <ele>178.46</ele>
        <time>2014-01-05T14:29:31Z</time>
      </trkpt>
      <trkpt lat="43.49057" lon="5.24457">
        <ele>177.02</ele>
        <time>2014-01-05T14:29:53Z</time>
      </trkpt>
      <trkpt lat="43.49054" lon="5.24451">
        <ele>177.5</ele>
        <time>2014-01-05T14:30:19Z</time>
      </trkpt>
      <trkpt lat="43.49053" lon="5.24445">
        <ele>177.02</ele>
        <time>2014-01-05T14:30:51Z</time>
      </trkpt>
      <trkpt lat="43.49056" lon="5.24455">
        <ele>176.54</ele>
        <time>2014-01-05T14:31:24Z</time>
      </trkpt>
      <trkpt lat="43.49054" lon="5.24444">
        <ele>176.54</ele>
        <time>2014-01-05T14:31:40Z</time>
      </trkpt>
      <trkpt lat="43.4905" lon="5.24443">
        <ele>176.06</ele>
        <time>2014-01-05T14:32:07Z</time>
      </trkpt>
      <trkpt lat="43.49055" lon="5.24438">
        <ele>175.58</ele>
        <time>2014-01-05T14:32:38Z</time>
      </trkpt>
      <trkpt lat="43.49052" lon="5.24438">
        <ele>176.06</ele>
        <time>2014-01-05T14:33:10Z</time>
      </trkpt>
      <trkpt lat="43.49057" lon="5.24444">
        <ele>176.06</ele>
        <time>2014-01-05T14:33:37Z</time>
      </trkpt>
      <trkpt lat="43.49056" lon="5.24443">
        <ele>175.58</ele>
        <time>2014-01-05T14:34:01Z</time>
      </trkpt>
      <trkpt lat="43.49052" lon="5.24438">
        <ele>175.1</ele>
        <time>2014-01-05T14:34:28Z</time>
      </trkpt>
      <trkpt lat="43.49053" lon="5.24439">
        <ele>175.58</ele>
        <time>2014-01-05T14:34:38Z</time>
      </trkpt>
      <trkpt lat="43.4905" lon="5.24436">
        <ele>174.62</ele>
        <time>2014-01-05T14:34:53Z</time>
      </trkpt>
      <trkpt lat="43.49047" lon="5.24433">
        <ele>175.58</ele>
        <time>2014-01-05T14:35:17Z</time>
      </trkpt>
      <trkpt lat="43.4905" lon="5.24442">
        <ele>175.58</ele>
        <time>2014-01-05T14:35:44Z</time>
      </trkpt>
      <trkpt lat="43.49051" lon="5.24444">
        <ele>182.31</ele>
        <time>2014-01-05T14:35:51Z</time>
      </trkpt>
      <trkpt lat="43.49052" lon="5.24445">
        <ele>176.06</ele>
        <time>2014-01-05T14:35:52Z</time>
      </trkpt>
      <trkpt lat="43.49054" lon="5.24448">
        <ele>175.1</ele>
        <time>2014-01-05T14:36:09Z</time>
      </trkpt>
      <trkpt lat="43.49054" lon="5.24448">
        <ele>175.1</ele>
        <time>2014-01-05T14:36:20Z</time>
      </trkpt>
      <trkpt lat="43.49054" lon="5.24448">
        <ele>176.54</ele>
        <time>2014-01-05T14:36:46Z</time>
      </trkpt>
      <trkpt lat="43.49052" lon="5.24448">
        <ele>175.58</ele>
        <time>2014-01-05T14:37:13Z</time>
      </trkpt>
      <trkpt lat="43.49051" lon="5.2445">
        <ele>174.14</ele>
        <time>2014-01-05T14:37:37Z</time>
      </trkpt>
      <trkpt lat="43.49051" lon="5.2445">
        <ele>175.1</ele>
        <time>2014-01-05T14:37:56Z</time>
      </trkpt>
      <trkpt lat="43.49051" lon="5.2445">
        <ele>174.62</ele>
        <time>2014-01-05T14:37:57Z</time>
      </trkpt>
      <trkpt lat="43.49048" lon="5.24453">
        <ele>175.58</ele>
        <time>2014-01-05T14:38:15Z</time>
      </trkpt>
      <trkpt lat="43.49038" lon="5.24471">
        <ele>173.66</ele>
        <time>2014-01-05T14:38:32Z</time>
      </trkpt>
      <trkpt lat="43.49024" lon="5.24481">
        <ele>172.21</ele>
        <time>2014-01-05T14:38:47Z</time>
      </trkpt>
      <trkpt lat="43.49008" lon="5.24494">
        <ele>173.17</ele>
        <time>2014-01-05T14:39:04Z</time>
      </trkpt>
      <trkpt lat="43.48993" lon="5.24508">
        <ele>171.73</ele>
        <time>2014-01-05T14:39:22Z</time>
      </trkpt>
      <trkpt lat="43.48978" lon="5.24524">
        <ele>172.69</ele>
        <time>2014-01-05T14:39:40Z</time>
      </trkpt>
      <trkpt lat="43.48966" lon="5.24535">
        <ele>174.62</ele>
        <time>2014-01-05T14:39:53Z</time>
      </trkpt>
      <trkpt lat="43.4895" lon="5.24547">
        <ele>175.58</ele>
        <time>2014-01-05T14:40:11Z</time>
      </trkpt>
      <trkpt lat="43.48937" lon="5.2456">
        <ele>174.62</ele>
        <time>2014-01-05T14:40:26Z</time>
      </trkpt>
      <trkpt lat="43.48924" lon="5.24577">
        <ele>173.66</ele>
        <time>2014-01-05T14:40:43Z</time>
      </trkpt>
      <trkpt lat="43.48913" lon="5.24595">
        <ele>171.25</ele>
        <time>2014-01-05T14:40:59Z</time>
      </trkpt>
      <trkpt lat="43.48899" lon="5.24612">
        <ele>170.77</ele>
        <time>2014-01-05T14:41:17Z</time>
      </trkpt>
      <trkpt lat="43.48888" lon="5.24626">
        <ele>170.29</ele>
        <time>2014-01-05T14:41:32Z</time>
      </trkpt>
      <trkpt lat="43.48886" lon="5.24631">
        <ele>169.81</ele>
        <time>2014-01-05T14:41:36Z</time>
      </trkpt>
      <trkpt lat="43.48885" lon="5.24656">
        <ele>168.85</ele>
        <time>2014-01-05T14:41:54Z</time>
      </trkpt>
      <trkpt lat="43.48885" lon="5.24678">
        <ele>168.37</ele>
        <time>2014-01-05T14:42:10Z</time>
      </trkpt>
      <trkpt lat="43.48884" lon="5.24684">
        <ele>167.89</ele>
        <time>2014-01-05T14:42:15Z</time>
      </trkpt>
      <trkpt lat="43.48877" lon="5.24708">
        <ele>166.93</ele>
        <time>2014-01-05T14:42:33Z</time>
      </trkpt>
      <trkpt lat="43.48867" lon="5.24731">
        <ele>166.93</ele>
        <time>2014-01-05T14:42:50Z</time>
      </trkpt>
      <trkpt lat="43.48856" lon="5.24754">
        <ele>165.48</ele>
        <time>2014-01-05T14:43:08Z</time>
      </trkpt>
      <trkpt lat="43.48843" lon="5.24774">
        <ele>164.04</ele>
        <time>2014-01-05T14:43:25Z</time>
      </trkpt>
      <trkpt lat="43.48836" lon="5.24784">
        <ele>163.56</ele>
        <time>2014-01-05T14:43:37Z</time>
      </trkpt>
      <trkpt lat="43.48834" lon="5.24787">
        <ele>164.04</ele>
        <time>2014-01-05T14:43:54Z</time>
      </trkpt>
      <trkpt lat="43.48832" lon="5.2479">
        <ele>164.52</ele>
        <time>2014-01-05T14:44:10Z</time>
      </trkpt>
      <trkpt lat="43.48815" lon="5.24806">
        <ele>164.04</ele>
        <time>2014-01-05T14:44:28Z</time>
      </trkpt>
      <trkpt lat="43.48799" lon="5.24819">
        <ele>163.08</ele>
        <time>2014-01-05T14:44:45Z</time>
      </trkpt>
      <trkpt lat="43.48782" lon="5.24837">
        <ele>161.64</ele>
        <time>2014-01-05T14:45:04Z</time>
      </trkpt>
      <trkpt lat="43.48765" lon="5.24852">
        <ele>159.72</ele>
        <time>2014-01-05T14:45:22Z</time>
      </trkpt>
      <trkpt lat="43.4875" lon="5.24861">
        <ele>159.72</ele>
        <time>2014-01-05T14:45:37Z</time>
      </trkpt>
      <trkpt lat="43.48732" lon="5.24874">
        <ele>158.75</ele>
        <time>2014-01-05T14:45:55Z</time>
      </trkpt>
      <trkpt lat="43.48718" lon="5.24885">
        <ele>157.79</ele>
        <time>2014-01-05T14:46:10Z</time>
      </trkpt>
      <trkpt lat="43.48702" lon="5.24894">
        <ele>157.79</ele>
        <time>2014-01-05T14:46:26Z</time>
      </trkpt>
      <trkpt lat="43.48684" lon="5.249">
        <ele>154.91</ele>
        <time>2014-01-05T14:46:43Z</time>
      </trkpt>
      <trkpt lat="43.48669" lon="5.24901">
        <ele>156.35</ele>
        <time>2014-01-05T14:46:58Z</time>
      </trkpt>
      <trkpt lat="43.48662" lon="5.24903">
        <ele>155.39</ele>
        <time>2014-01-05T14:47:04Z</time>
      </trkpt>
      <trkpt lat="43.48647" lon="5.24903">
        <ele>155.87</ele>
        <time>2014-01-05T14:47:18Z</time>
      </trkpt>
      <trkpt lat="43.48634" lon="5.24905">
        <ele>155.39</ele>
        <time>2014-01-05T14:47:32Z</time>
      </trkpt>
      <trkpt lat="43.48628" lon="5.24914">
        <ele>154.43</ele>
        <time>2014-01-05T14:47:46Z</time>
      </trkpt>
      <trkpt lat="43.48633" lon="5.24919">
        <ele>153.95</ele>
        <time>2014-01-05T14:47:53Z</time>
      </trkpt>
      <trkpt lat="43.48651" lon="5.24925">
        <ele>153.95</ele>
        <time>2014-01-05T14:48:10Z</time>
      </trkpt>
      <trkpt lat="43.48664" lon="5.24934">
        <ele>152.99</ele>
        <time>2014-01-05T14:48:24Z</time>
      </trkpt>
      <trkpt lat="43.48676" lon="5.24945">
        <ele>151.54</ele>
        <time>2014-01-05T14:48:39Z</time>
      </trkpt>
      <trkpt lat="43.48687" lon="5.24954">
        <ele>150.58</ele>
        <time>2014-01-05T14:48:53Z</time>
      </trkpt>
      <trkpt lat="43.48698" lon="5.24957">
        <ele>151.06</ele>
        <time>2014-01-05T14:49:06Z</time>
      </trkpt>
      <trkpt lat="43.48703" lon="5.24963">
        <ele>151.06</ele>
        <time>2014-01-05T14:49:13Z</time>
      </trkpt>
      <trkpt lat="43.48701" lon="5.24971">
        <ele>150.58</ele>
        <time>2014-01-05T14:49:21Z</time>
      </trkpt>
      <trkpt lat="43.48682" lon="5.24971">
        <ele>148.18</ele>
        <time>2014-01-05T14:49:38Z</time>
      </trkpt>
      <trkpt lat="43.48665" lon="5.24979">
        <ele>146.74</ele>
        <time>2014-01-05T14:49:57Z</time>
      </trkpt>
      <trkpt lat="43.48651" lon="5.2499">
        <ele>144.34</ele>
        <time>2014-01-05T14:50:13Z</time>
      </trkpt>
      <trkpt lat="43.48635" lon="5.25002">
        <ele>141.93</ele>
        <time>2014-01-05T14:50:31Z</time>
      </trkpt>
      <trkpt lat="43.48615" lon="5.24998">
        <ele>140.01</ele>
        <time>2014-01-05T14:50:49Z</time>
      </trkpt>
      <trkpt lat="43.48603" lon="5.24985">
        <ele>137.61</ele>
        <time>2014-01-05T14:51:03Z</time>
      </trkpt>
      <trkpt lat="43.48602" lon="5.24984">
        <ele>137.61</ele>
        <time>2014-01-05T14:51:04Z</time>
      </trkpt>
      <trkpt lat="43.48598" lon="5.24982">
        <ele>136.64</ele>
        <time>2014-01-05T14:51:10Z</time>
      </trkpt>
      <trkpt lat="43.48595" lon="5.24981">
        <ele>136.16</ele>
        <time>2014-01-05T14:51:13Z</time>
      </trkpt>
      <trkpt lat="43.4858" lon="5.24974">
        <ele>132.8</ele>
        <time>2014-01-05T14:51:28Z</time>
      </trkpt>
      <trkpt lat="43.48578" lon="5.24973">
        <ele>132.8</ele>
        <time>2014-01-05T14:51:30Z</time>
      </trkpt>
      <trkpt lat="43.48572" lon="5.24973">
        <ele>131.36</ele>
        <time>2014-01-05T14:51:36Z</time>
      </trkpt>
      <trkpt lat="43.48556" lon="5.24972">
        <ele>128.47</ele>
        <time>2014-01-05T14:51:51Z</time>
      </trkpt>
      <trkpt lat="43.48544" lon="5.24974">
        <ele>125.11</ele>
        <time>2014-01-05T14:52:06Z</time>
      </trkpt>
      <trkpt lat="43.4853" lon="5.24979">
        <ele>121.74</ele>
        <time>2014-01-05T14:52:22Z</time>
      </trkpt>
      <trkpt lat="43.48529" lon="5.24979">
        <ele>121.74</ele>
        <time>2014-01-05T14:52:23Z</time>
      </trkpt>
      <trkpt lat="43.48511" lon="5.24984">
        <ele>118.38</ele>
        <time>2014-01-05T14:52:40Z</time>
      </trkpt>
      <trkpt lat="43.48499" lon="5.2498">
        <ele>115.98</ele>
        <time>2014-01-05T14:52:53Z</time>
      </trkpt>
      <trkpt lat="43.48485" lon="5.24971">
        <ele>113.09</ele>
        <time>2014-01-05T14:53:07Z</time>
      </trkpt>
      <trkpt lat="43.48472" lon="5.24961">
        <ele>111.65</ele>
        <time>2014-01-05T14:53:21Z</time>
      </trkpt>
      <trkpt lat="43.4846" lon="5.24953">
        <ele>109.25</ele>
        <time>2014-01-05T14:53:34Z</time>
      </trkpt>
      <trkpt lat="43.48459" lon="5.24953">
        <ele>109.73</ele>
        <time>2014-01-05T14:53:35Z</time>
      </trkpt>
      <trkpt lat="43.48456" lon="5.2495">
        <ele>108.77</ele>
        <time>2014-01-05T14:53:39Z</time>
      </trkpt>
      <trkpt lat="43.48453" lon="5.24947">
        <ele>108.29</ele>
        <time>2014-01-05T14:53:42Z</time>
      </trkpt>
      <trkpt lat="43.48448" lon="5.24946">
        <ele>107.81</ele>
        <time>2014-01-05T14:53:46Z</time>
      </trkpt>
      <trkpt lat="43.48431" lon="5.24938">
        <ele>106.36</ele>
        <time>2014-01-05T14:54:01Z</time>
      </trkpt>
      <trkpt lat="43.48417" lon="5.24926">
        <ele>104.92</ele>
        <time>2014-01-05T14:54:17Z</time>
      </trkpt>
      <trkpt lat="43.48406" lon="5.24913">
        <ele>102.52</ele>
        <time>2014-01-05T14:54:31Z</time>
      </trkpt>
      <trkpt lat="43.48399" lon="5.24909">
        <ele>101.56</ele>
        <time>2014-01-05T14:54:40Z</time>
      </trkpt>
      <trkpt lat="43.48404" lon="5.24918">
        <ele>101.56</ele>
        <time>2014-01-05T14:54:52Z</time>
      </trkpt>
      <trkpt lat="43.48418" lon="5.24932">
        <ele>101.08</ele>
        <time>2014-01-05T14:55:07Z</time>
      </trkpt>
      <trkpt lat="43.48429" lon="5.24945">
        <ele>101.08</ele>
        <time>2014-01-05T14:55:22Z</time>
      </trkpt>
      <trkpt lat="43.48446" lon="5.24961">
        <ele>101.56</ele>
        <time>2014-01-05T14:55:39Z</time>
      </trkpt>
      <trkpt lat="43.48456" lon="5.24976">
        <ele>100.6</ele>
        <time>2014-01-05T14:55:53Z</time>
      </trkpt>
      <trkpt lat="43.48466" lon="5.24991">
        <ele>102.52</ele>
        <time>2014-01-05T14:56:07Z</time>
      </trkpt>
      <trkpt lat="43.48476" lon="5.25004">
        <ele>103.48</ele>
        <time>2014-01-05T14:56:22Z</time>
      </trkpt>
      <trkpt lat="43.4849" lon="5.25016">
        <ele>104.44</ele>
        <time>2014-01-05T14:56:37Z</time>
      </trkpt>
      <trkpt lat="43.48506" lon="5.25028">
        <ele>103</ele>
        <time>2014-01-05T14:56:53Z</time>
      </trkpt>
      <trkpt lat="43.4852" lon="5.25039">
        <ele>102.04</ele>
        <time>2014-01-05T14:57:08Z</time>
      </trkpt>
      <trkpt lat="43.48527" lon="5.25049">
        <ele>102.04</ele>
        <time>2014-01-05T14:57:17Z</time>
      </trkpt>
      <trkpt lat="43.48528" lon="5.25051">
        <ele>102.04</ele>
        <time>2014-01-05T14:57:19Z</time>
      </trkpt>
      <trkpt lat="43.48532" lon="5.25068">
        <ele>100.6</ele>
        <time>2014-01-05T14:57:31Z</time>
      </trkpt>
      <trkpt lat="43.48532" lon="5.25077">
        <ele>99.63</ele>
        <time>2014-01-05T14:57:36Z</time>
      </trkpt>
      <trkpt lat="43.48535" lon="5.25106">
        <ele>97.71</ele>
        <time>2014-01-05T14:57:56Z</time>
      </trkpt>
      <trkpt lat="43.48537" lon="5.25112">
        <ele>98.19</ele>
        <time>2014-01-05T14:58:12Z</time>
      </trkpt>
      <trkpt lat="43.4854" lon="5.25118">
        <ele>97.71</ele>
        <time>2014-01-05T14:58:18Z</time>
      </trkpt>
      <trkpt lat="43.48544" lon="5.25125">
        <ele>96.27</ele>
        <time>2014-01-05T14:58:25Z</time>
      </trkpt>
      <trkpt lat="43.48551" lon="5.25146">
        <ele>94.83</ele>
        <time>2014-01-05T14:58:40Z</time>
      </trkpt>
      <trkpt lat="43.48548" lon="5.25155">
        <ele>93.39</ele>
        <time>2014-01-05T14:58:47Z</time>
      </trkpt>
      <trkpt lat="43.48533" lon="5.25166">
        <ele>91.46</ele>
        <time>2014-01-05T14:59:02Z</time>
      </trkpt>
      <trkpt lat="43.4853" lon="5.25168">
        <ele>91.46</ele>
        <time>2014-01-05T14:59:05Z</time>
      </trkpt>
      <trkpt lat="43.4852" lon="5.25174">
        <ele>90.02</ele>
        <time>2014-01-05T14:59:13Z</time>
      </trkpt>
      <trkpt lat="43.48509" lon="5.25193">
        <ele>88.58</ele>
        <time>2014-01-05T14:59:29Z</time>
      </trkpt>
      <trkpt lat="43.48505" lon="5.25206">
        <ele>87.14</ele>
        <time>2014-01-05T14:59:38Z</time>
      </trkpt>
      <trkpt lat="43.48497" lon="5.25233">
        <ele>86.18</ele>
        <time>2014-01-05T14:59:57Z</time>
      </trkpt>
      <trkpt lat="43.4849" lon="5.2525">
        <ele>85.69</ele>
        <time>2014-01-05T15:00:09Z</time>
      </trkpt>
      <trkpt lat="43.4848" lon="5.25265">
        <ele>85.69</ele>
        <time>2014-01-05T15:00:24Z</time>
      </trkpt>
      <trkpt lat="43.48473" lon="5.25282">
        <ele>85.21</ele>
        <time>2014-01-05T15:00:37Z</time>
      </trkpt>
      <trkpt lat="43.48473" lon="5.25282">
        <ele>84.73</ele>
        <time>2014-01-05T15:00:47Z</time>
      </trkpt>
      <trkpt lat="43.48462" lon="5.25281">
        <ele>84.73</ele>
        <time>2014-01-05T15:00:59Z</time>
      </trkpt>
      <trkpt lat="43.48458" lon="5.25265">
        <ele>85.69</ele>
        <time>2014-01-05T15:01:12Z</time>
      </trkpt>
      <trkpt lat="43.48458" lon="5.25259">
        <ele>85.69</ele>
        <time>2014-01-05T15:01:16Z</time>
      </trkpt>
      <trkpt lat="43.48454" lon="5.25235">
        <ele>87.62</ele>
        <time>2014-01-05T15:01:32Z</time>
      </trkpt>
      <trkpt lat="43.48441" lon="5.25211">
        <ele>88.58</ele>
        <time>2014-01-05T15:01:51Z</time>
      </trkpt>
      <trkpt lat="43.48425" lon="5.25196">
        <ele>89.06</ele>
        <time>2014-01-05T15:02:09Z</time>
      </trkpt>
      <trkpt lat="43.48411" lon="5.2519">
        <ele>89.06</ele>
        <time>2014-01-05T15:02:23Z</time>
      </trkpt>
      <trkpt lat="43.48397" lon="5.25182">
        <ele>90.02</ele>
        <time>2014-01-05T15:02:37Z</time>
      </trkpt>
      <trkpt lat="43.48381" lon="5.25173">
        <ele>90.98</ele>
        <time>2014-01-05T15:02:52Z</time>
      </trkpt>
      <trkpt lat="43.48379" lon="5.2517">
        <ele>91.94</ele>
        <time>2014-01-05T15:02:55Z</time>
      </trkpt>
      <trkpt lat="43.48369" lon="5.25164">
        <ele>91.46</ele>
        <time>2014-01-05T15:03:04Z</time>
      </trkpt>
      <trkpt lat="43.48364" lon="5.25157">
        <ele>91.94</ele>
        <time>2014-01-05T15:03:11Z</time>
      </trkpt>
      <trkpt lat="43.48356" lon="5.25151">
        <ele>93.39</ele>
        <time>2014-01-05T15:03:24Z</time>
      </trkpt>
      <trkpt lat="43.48349" lon="5.25149">
        <ele>92.42</ele>
        <time>2014-01-05T15:03:46Z</time>
      </trkpt>
      <trkpt lat="43.48338" lon="5.25141">
        <ele>91.94</ele>
        <time>2014-01-05T15:04:00Z</time>
      </trkpt>
      <trkpt lat="43.48335" lon="5.25139">
        <ele>92.42</ele>
        <time>2014-01-05T15:04:02Z</time>
      </trkpt>
      <trkpt lat="43.48329" lon="5.25135">
        <ele>91.94</ele>
        <time>2014-01-05T15:04:08Z</time>
      </trkpt>
      <trkpt lat="43.48311" lon="5.25131">
        <ele>92.42</ele>
        <time>2014-01-05T15:04:24Z</time>
      </trkpt>
      <trkpt lat="43.48298" lon="5.25126">
        <ele>91.46</ele>
        <time>2014-01-05T15:04:37Z</time>
      </trkpt>
      <trkpt lat="43.48292" lon="5.25124">
        <ele>91.94</ele>
        <time>2014-01-05T15:04:42Z</time>
      </trkpt>
      <trkpt lat="43.48281" lon="5.25119">
        <ele>92.9</ele>
        <time>2014-01-05T15:04:58Z</time>
      </trkpt>
      <trkpt lat="43.48276" lon="5.2512">
        <ele>91.94</ele>
        <time>2014-01-05T15:05:10Z</time>
      </trkpt>
      <trkpt lat="43.48273" lon="5.2512">
        <ele>91.46</ele>
        <time>2014-01-05T15:05:13Z</time>
      </trkpt>
      <trkpt lat="43.48262" lon="5.2513">
        <ele>90.5</ele>
        <time>2014-01-05T15:05:26Z</time>
      </trkpt>
      <trkpt lat="43.48248" lon="5.25157">
        <ele>90.5</ele>
        <time>2014-01-05T15:05:45Z</time>
      </trkpt>
      <trkpt lat="43.48239" lon="5.25177">
        <ele>90.02</ele>
        <time>2014-01-05T15:06:01Z</time>
      </trkpt>
      <trkpt lat="43.48236" lon="5.25185">
        <ele>91.46</ele>
        <time>2014-01-05T15:06:07Z</time>
      </trkpt>
      <trkpt lat="43.48235" lon="5.25203">
        <ele>90.98</ele>
        <time>2014-01-05T15:06:21Z</time>
      </trkpt>
      <trkpt lat="43.48233" lon="5.25231">
        <ele>90.02</ele>
        <time>2014-01-05T15:06:36Z</time>
      </trkpt>
      <trkpt lat="43.48234" lon="5.25255">
        <ele>90.98</ele>
        <time>2014-01-05T15:06:53Z</time>
      </trkpt>
      <trkpt lat="43.4824" lon="5.25278">
        <ele>90.98</ele>
        <time>2014-01-05T15:07:12Z</time>
      </trkpt>
      <trkpt lat="43.48243" lon="5.25288">
        <ele>90.98</ele>
        <time>2014-01-05T15:07:24Z</time>
      </trkpt>
      <trkpt lat="43.48247" lon="5.2529">
        <ele>90.98</ele>
        <time>2014-01-05T15:07:45Z</time>
      </trkpt>
      <trkpt lat="43.48246" lon="5.25291">
        <ele>90.98</ele>
        <time>2014-01-05T15:07:46Z</time>
      </trkpt>
      <trkpt lat="43.48236" lon="5.25302">
        <ele>90.5</ele>
        <time>2014-01-05T15:07:57Z</time>
      </trkpt>
      <trkpt lat="43.48226" lon="5.25304">
        <ele>90.5</ele>
        <time>2014-01-05T15:08:07Z</time>
      </trkpt>
      <trkpt lat="43.48221" lon="5.25303">
        <ele>90.02</ele>
        <time>2014-01-05T15:08:11Z</time>
      </trkpt>
      <trkpt lat="43.48217" lon="5.25302">
        <ele>90.5</ele>
        <time>2014-01-05T15:08:15Z</time>
      </trkpt>
      <trkpt lat="43.48203" lon="5.2529">
        <ele>90.02</ele>
        <time>2014-01-05T15:08:29Z</time>
      </trkpt>
      <trkpt lat="43.48198" lon="5.25284">
        <ele>90.5</ele>
        <time>2014-01-05T15:08:32Z</time>
      </trkpt>
      <trkpt lat="43.48183" lon="5.25274">
        <ele>88.58</ele>
        <time>2014-01-05T15:08:45Z</time>
      </trkpt>
      <trkpt lat="43.48179" lon="5.25273">
        <ele>88.1</ele>
        <time>2014-01-05T15:08:49Z</time>
      </trkpt>
      <trkpt lat="43.48166" lon="5.25273">
        <ele>87.14</ele>
        <time>2014-01-05T15:08:59Z</time>
      </trkpt>
      <trkpt lat="43.48155" lon="5.25278">
        <ele>86.18</ele>
        <time>2014-01-05T15:09:11Z</time>
      </trkpt>
      <trkpt lat="43.48153" lon="5.25279">
        <ele>86.18</ele>
        <time>2014-01-05T15:09:13Z</time>
      </trkpt>
      <trkpt lat="43.48144" lon="5.25283">
        <ele>85.69</ele>
        <time>2014-01-05T15:09:21Z</time>
      </trkpt>
      <trkpt lat="43.48138" lon="5.25285">
        <ele>85.69</ele>
        <time>2014-01-05T15:09:26Z</time>
      </trkpt>
      <trkpt lat="43.48124" lon="5.25293">
        <ele>85.21</ele>
        <time>2014-01-05T15:09:40Z</time>
      </trkpt>
      <trkpt lat="43.48123" lon="5.25294">
        <ele>85.21</ele>
        <time>2014-01-05T15:09:41Z</time>
      </trkpt>
      <trkpt lat="43.4812" lon="5.25296">
        <ele>85.21</ele>
        <time>2014-01-05T15:09:44Z</time>
      </trkpt>
      <trkpt lat="43.4811" lon="5.25302">
        <ele>84.25</ele>
        <time>2014-01-05T15:09:51Z</time>
      </trkpt>
      <trkpt lat="43.48094" lon="5.25285">
        <ele>85.21</ele>
        <time>2014-01-05T15:10:07Z</time>
      </trkpt>
      <trkpt lat="43.48092" lon="5.25283">
        <ele>85.21</ele>
        <time>2014-01-05T15:10:09Z</time>
      </trkpt>
      <trkpt lat="43.48089" lon="5.25279">
        <ele>85.69</ele>
        <time>2014-01-05T15:10:13Z</time>
      </trkpt>
      <trkpt lat="43.48082" lon="5.25264">
        <ele>86.18</ele>
        <time>2014-01-05T15:10:26Z</time>
      </trkpt>
      <trkpt lat="43.48082" lon="5.2526">
        <ele>85.21</ele>
        <time>2014-01-05T15:10:28Z</time>
      </trkpt>
      <trkpt lat="43.48091" lon="5.2524">
        <ele>86.18</ele>
        <time>2014-01-05T15:10:42Z</time>
      </trkpt>
      <trkpt lat="43.48102" lon="5.25223">
        <ele>86.18</ele>
        <time>2014-01-05T15:10:58Z</time>
      </trkpt>
      <trkpt lat="43.48116" lon="5.25211">
        <ele>88.1</ele>
        <time>2014-01-05T15:11:12Z</time>
      </trkpt>
      <trkpt lat="43.48127" lon="5.25193">
        <ele>89.54</ele>
        <time>2014-01-05T15:11:25Z</time>
      </trkpt>
      <trkpt lat="43.48129" lon="5.25181">
        <ele>90.02</ele>
        <time>2014-01-05T15:11:32Z</time>
      </trkpt>
      <trkpt lat="43.48133" lon="5.25157">
        <ele>91.46</ele>
        <time>2014-01-05T15:11:46Z</time>
      </trkpt>
      <trkpt lat="43.48134" lon="5.25147">
        <ele>91.94</ele>
        <time>2014-01-05T15:11:53Z</time>
      </trkpt>
      <trkpt lat="43.48136" lon="5.2514">
        <ele>92.9</ele>
        <time>2014-01-05T15:11:59Z</time>
      </trkpt>
      <trkpt lat="43.48134" lon="5.2512">
        <ele>93.87</ele>
        <time>2014-01-05T15:12:15Z</time>
      </trkpt>
      <trkpt lat="43.48135" lon="5.25121">
        <ele>94.35</ele>
        <time>2014-01-05T15:12:38Z</time>
      </trkpt>
      <trkpt lat="43.48131" lon="5.25103">
        <ele>96.75</ele>
        <time>2014-01-05T15:12:53Z</time>
      </trkpt>
      <trkpt lat="43.48128" lon="5.25095">
        <ele>97.23</ele>
        <time>2014-01-05T15:12:59Z</time>
      </trkpt>
      <trkpt lat="43.48121" lon="5.25082">
        <ele>95.31</ele>
        <time>2014-01-05T15:13:10Z</time>
      </trkpt>
      <trkpt lat="43.48105" lon="5.25075">
        <ele>96.27</ele>
        <time>2014-01-05T15:13:25Z</time>
      </trkpt>
      <trkpt lat="43.48104" lon="5.25075">
        <ele>96.27</ele>
        <time>2014-01-05T15:13:26Z</time>
      </trkpt>
      <trkpt lat="43.4809" lon="5.25072">
        <ele>98.19</ele>
        <time>2014-01-05T15:13:40Z</time>
      </trkpt>
      <trkpt lat="43.48084" lon="5.2507">
        <ele>99.15</ele>
        <time>2014-01-05T15:13:45Z</time>
      </trkpt>
      <trkpt lat="43.48078" lon="5.25063">
        <ele>99.15</ele>
        <time>2014-01-05T15:13:53Z</time>
      </trkpt>
      <trkpt lat="43.48075" lon="5.25039">
        <ele>100.11</ele>
        <time>2014-01-05T15:14:08Z</time>
      </trkpt>
      <trkpt lat="43.48077" lon="5.25012">
        <ele>100.6</ele>
        <time>2014-01-05T15:14:25Z</time>
      </trkpt>
      <trkpt lat="43.48078" lon="5.24998">
        <ele>101.08</ele>
        <time>2014-01-05T15:14:43Z</time>
      </trkpt>
      <trkpt lat="43.48079" lon="5.24982">
        <ele>101.08</ele>
        <time>2014-01-05T15:15:03Z</time>
      </trkpt>
      <trkpt lat="43.48074" lon="5.24971">
        <ele>101.08</ele>
        <time>2014-01-05T15:15:14Z</time>
      </trkpt>
      <trkpt lat="43.48061" lon="5.2496">
        <ele>100.11</ele>
        <time>2014-01-05T15:15:29Z</time>
      </trkpt>
      <trkpt lat="43.48054" lon="5.24958">
        <ele>99.15</ele>
        <time>2014-01-05T15:15:36Z</time>
      </trkpt>
      <trkpt lat="43.48039" lon="5.24961">
        <ele>99.63</ele>
        <time>2014-01-05T15:15:49Z</time>
      </trkpt>
      <trkpt lat="43.48028" lon="5.2496">
        <ele>99.15</ele>
        <time>2014-01-05T15:15:59Z</time>
      </trkpt>
      <trkpt lat="43.48025" lon="5.24962">
        <ele>99.15</ele>
        <time>2014-01-05T15:16:02Z</time>
      </trkpt>
      <trkpt lat="43.48016" lon="5.24961">
        <ele>99.15</ele>
        <time>2014-01-05T15:16:10Z</time>
      </trkpt>
      <trkpt lat="43.48004" lon="5.24964">
        <ele>98.67</ele>
        <time>2014-01-05T15:16:21Z</time>
      </trkpt>
      <trkpt lat="43.47986" lon="5.24975">
        <ele>97.23</ele>
        <time>2014-01-05T15:16:36Z</time>
      </trkpt>
      <trkpt lat="43.47976" lon="5.24982">
        <ele>96.75</ele>
        <time>2014-01-05T15:16:48Z</time>
      </trkpt>
      <trkpt lat="43.47965" lon="5.24989">
        <ele>96.27</ele>
        <time>2014-01-05T15:17:01Z</time>
      </trkpt>
      <trkpt lat="43.47964" lon="5.2499">
        <ele>96.27</ele>
        <time>2014-01-05T15:17:02Z</time>
      </trkpt>
      <trkpt lat="43.47942" lon="5.24989">
        <ele>95.31</ele>
        <time>2014-01-05T15:17:16Z</time>
      </trkpt>
      <trkpt lat="43.47932" lon="5.24982">
        <ele>94.35</ele>
        <time>2014-01-05T15:17:26Z</time>
      </trkpt>
      <trkpt lat="43.47927" lon="5.24979">
        <ele>94.35</ele>
        <time>2014-01-05T15:17:31Z</time>
      </trkpt>
      <trkpt lat="43.47918" lon="5.24981">
        <ele>91.94</ele>
        <time>2014-01-05T15:17:39Z</time>
      </trkpt>
      <trkpt lat="43.47905" lon="5.24985">
        <ele>91.46</ele>
        <time>2014-01-05T15:17:51Z</time>
      </trkpt>
      <trkpt lat="43.47899" lon="5.24987">
        <ele>91.46</ele>
        <time>2014-01-05T15:17:57Z</time>
      </trkpt>
      <trkpt lat="43.47896" lon="5.24977">
        <ele>90.5</ele>
        <time>2014-01-05T15:18:04Z</time>
      </trkpt>
      <trkpt lat="43.47899" lon="5.24962">
        <ele>91.46</ele>
        <time>2014-01-05T15:18:14Z</time>
      </trkpt>
      <trkpt lat="43.47901" lon="5.24938">
        <ele>91.94</ele>
        <time>2014-01-05T15:18:29Z</time>
      </trkpt>
      <trkpt lat="43.47898" lon="5.2493">
        <ele>91.94</ele>
        <time>2014-01-05T15:18:34Z</time>
      </trkpt>
      <trkpt lat="43.47887" lon="5.24924">
        <ele>92.9</ele>
        <time>2014-01-05T15:18:45Z</time>
      </trkpt>
      <trkpt lat="43.47876" lon="5.2492">
        <ele>92.9</ele>
        <time>2014-01-05T15:18:57Z</time>
      </trkpt>
      <trkpt lat="43.47875" lon="5.24919">
        <ele>92.9</ele>
        <time>2014-01-05T15:18:59Z</time>
      </trkpt>
      <trkpt lat="43.47862" lon="5.24918">
        <ele>91.94</ele>
        <time>2014-01-05T15:19:11Z</time>
      </trkpt>
      <trkpt lat="43.47859" lon="5.24917">
        <ele>91.46</ele>
        <time>2014-01-05T15:19:14Z</time>
      </trkpt>
      <trkpt lat="43.47855" lon="5.24903">
        <ele>90.5</ele>
        <time>2014-01-05T15:19:24Z</time>
      </trkpt>
      <trkpt lat="43.47859" lon="5.24889">
        <ele>90.5</ele>
        <time>2014-01-05T15:19:33Z</time>
      </trkpt>
      <trkpt lat="43.47862" lon="5.24886">
        <ele>90.5</ele>
        <time>2014-01-05T15:19:37Z</time>
      </trkpt>
      <trkpt lat="43.47879" lon="5.24878">
        <ele>87.62</ele>
        <time>2014-01-05T15:19:53Z</time>
      </trkpt>
      <trkpt lat="43.47881" lon="5.24877">
        <ele>87.62</ele>
        <time>2014-01-05T15:19:55Z</time>
      </trkpt>
      <trkpt lat="43.47899" lon="5.24872">
        <ele>86.66</ele>
        <time>2014-01-05T15:20:12Z</time>
      </trkpt>
      <trkpt lat="43.47912" lon="5.24864">
        <ele>84.73</ele>
        <time>2014-01-05T15:20:25Z</time>
      </trkpt>
      <trkpt lat="43.47925" lon="5.24856">
        <ele>83.29</ele>
        <time>2014-01-05T15:20:38Z</time>
      </trkpt>
      <trkpt lat="43.4794" lon="5.2485">
        <ele>81.37</ele>
        <time>2014-01-05T15:20:53Z</time>
      </trkpt>
      <trkpt lat="43.47956" lon="5.24839">
        <ele>79.93</ele>
        <time>2014-01-05T15:21:09Z</time>
      </trkpt>
      <trkpt lat="43.47972" lon="5.24829">
        <ele>77.52</ele>
        <time>2014-01-05T15:21:24Z</time>
      </trkpt>
      <trkpt lat="43.47979" lon="5.24825">
        <ele>76.56</ele>
        <time>2014-01-05T15:21:30Z</time>
      </trkpt>
      <trkpt lat="43.47992" lon="5.24812">
        <ele>74.16</ele>
        <time>2014-01-05T15:21:45Z</time>
      </trkpt>
      <trkpt lat="43.48005" lon="5.248">
        <ele>72.24</ele>
        <time>2014-01-05T15:21:58Z</time>
      </trkpt>
      <trkpt lat="43.48019" lon="5.24787">
        <ele>70.31</ele>
        <time>2014-01-05T15:22:13Z</time>
      </trkpt>
      <trkpt lat="43.48031" lon="5.24772">
        <ele>68.87</ele>
        <time>2014-01-05T15:22:27Z</time>
      </trkpt>
      <trkpt lat="43.48041" lon="5.24757">
        <ele>67.43</ele>
        <time>2014-01-05T15:22:39Z</time>
      </trkpt>
      <trkpt lat="43.48051" lon="5.24737">
        <ele>65.99</ele>
        <time>2014-01-05T15:22:54Z</time>
      </trkpt>
      <trkpt lat="43.48058" lon="5.2472">
        <ele>65.99</ele>
        <time>2014-01-05T15:23:06Z</time>
      </trkpt>
      <trkpt lat="43.48067" lon="5.24707">
        <ele>65.51</ele>
        <time>2014-01-05T15:23:20Z</time>
      </trkpt>
      <trkpt lat="43.48071" lon="5.24696">
        <ele>65.03</ele>
        <time>2014-01-05T15:23:29Z</time>
      </trkpt>
      <trkpt lat="43.48077" lon="5.24673">
        <ele>64.07</ele>
        <time>2014-01-05T15:23:45Z</time>
      </trkpt>
      <trkpt lat="43.48079" lon="5.24665">
        <ele>63.58</ele>
        <time>2014-01-05T15:23:51Z</time>
      </trkpt>
      <trkpt lat="43.48084" lon="5.24649">
        <ele>62.14</ele>
        <time>2014-01-05T15:24:03Z</time>
      </trkpt>
      <trkpt lat="43.48088" lon="5.24631">
        <ele>61.66</ele>
        <time>2014-01-05T15:24:15Z</time>
      </trkpt>
      <trkpt lat="43.4809" lon="5.24613">
        <ele>61.66</ele>
        <time>2014-01-05T15:24:29Z</time>
      </trkpt>
      <trkpt lat="43.48093" lon="5.24602">
        <ele>61.18</ele>
        <time>2014-01-05T15:24:36Z</time>
      </trkpt>
      <trkpt lat="43.48103" lon="5.24583">
        <ele>59.26</ele>
        <time>2014-01-05T15:24:51Z</time>
      </trkpt>
      <trkpt lat="43.48105" lon="5.2458">
        <ele>59.26</ele>
        <time>2014-01-05T15:24:53Z</time>
      </trkpt>
      <trkpt lat="43.48108" lon="5.24571">
        <ele>58.3</ele>
        <time>2014-01-05T15:24:59Z</time>
      </trkpt>
      <trkpt lat="43.48112" lon="5.24554">
        <ele>57.82</ele>
        <time>2014-01-05T15:25:09Z</time>
      </trkpt>
      <trkpt lat="43.48113" lon="5.2455">
        <ele>57.82</ele>
        <time>2014-01-05T15:25:12Z</time>
      </trkpt>
      <trkpt lat="43.48117" lon="5.24527">
        <ele>55.89</ele>
        <time>2014-01-05T15:25:28Z</time>
      </trkpt>
      <trkpt lat="43.48123" lon="5.24507">
        <ele>54.93</ele>
        <time>2014-01-05T15:25:42Z</time>
      </trkpt>
      <trkpt lat="43.48125" lon="5.24485">
        <ele>54.45</ele>
        <time>2014-01-05T15:25:56Z</time>
      </trkpt>
      <trkpt lat="43.48126" lon="5.2446">
        <ele>54.45</ele>
        <time>2014-01-05T15:26:11Z</time>
      </trkpt>
      <trkpt lat="43.48129" lon="5.24447">
        <ele>53.97</ele>
        <time>2014-01-05T15:26:21Z</time>
      </trkpt>
      <trkpt lat="43.48134" lon="5.24427">
        <ele>53.49</ele>
        <time>2014-01-05T15:26:35Z</time>
      </trkpt>
      <trkpt lat="43.48137" lon="5.244">
        <ele>52.53</ele>
        <time>2014-01-05T15:26:52Z</time>
      </trkpt>
      <trkpt lat="43.48141" lon="5.2438">
        <ele>52.05</ele>
        <time>2014-01-05T15:27:05Z</time>
      </trkpt>
      <trkpt lat="43.48141" lon="5.24374">
        <ele>51.09</ele>
        <time>2014-01-05T15:27:08Z</time>
      </trkpt>
      <trkpt lat="43.48143" lon="5.2437">
        <ele>51.09</ele>
        <time>2014-01-05T15:27:11Z</time>
      </trkpt>
      <trkpt lat="43.48147" lon="5.24352">
        <ele>50.13</ele>
        <time>2014-01-05T15:27:24Z</time>
      </trkpt>
      <trkpt lat="43.48153" lon="5.24332">
        <ele>50.13</ele>
        <time>2014-01-05T15:27:38Z</time>
      </trkpt>
      <trkpt lat="43.48154" lon="5.2432">
        <ele>46.76</ele>
        <time>2014-01-05T15:27:48Z</time>
      </trkpt>
      <trkpt lat="43.48157" lon="5.24309">
        <ele>45.8</ele>
        <time>2014-01-05T15:27:55Z</time>
      </trkpt>
      <trkpt lat="43.48169" lon="5.24288">
        <ele>45.32</ele>
        <time>2014-01-05T15:28:12Z</time>
      </trkpt>
      <trkpt lat="43.48171" lon="5.24263">
        <ele>44.84</ele>
        <time>2014-01-05T15:28:30Z</time>
      </trkpt>
      <trkpt lat="43.48169" lon="5.24252">
        <ele>44.84</ele>
        <time>2014-01-05T15:28:36Z</time>
      </trkpt>
      <trkpt lat="43.48172" lon="5.24232">
        <ele>42.92</ele>
        <time>2014-01-05T15:28:52Z</time>
      </trkpt>
      <trkpt lat="43.48173" lon="5.2422">
        <ele>42.44</ele>
        <time>2014-01-05T15:29:01Z</time>
      </trkpt>
      <trkpt lat="43.48171" lon="5.24211">
        <ele>43.4</ele>
        <time>2014-01-05T15:29:07Z</time>
      </trkpt>
      <trkpt lat="43.4817" lon="5.24196">
        <ele>38.11</ele>
        <time>2014-01-05T15:29:21Z</time>
      </trkpt>
      <trkpt lat="43.4817" lon="5.24196">
        <ele>44.84</ele>
        <time>2014-01-05T15:29:22Z</time>
      </trkpt>
      <trkpt lat="43.4817" lon="5.24195">
        <ele>41.47</ele>
        <time>2014-01-05T15:29:23Z</time>
      </trkpt>
      <trkpt lat="43.4817" lon="5.24195">
        <ele>40.51</ele>
        <time>2014-01-05T15:29:24Z</time>
      </trkpt>
      <trkpt lat="43.48174" lon="5.24184">
        <ele>40.99</ele>
        <time>2014-01-05T15:29:42Z</time>
      </trkpt>
      <trkpt lat="43.48176" lon="5.24169">
        <ele>39.55</ele>
        <time>2014-01-05T15:29:56Z</time>
      </trkpt>
      <trkpt lat="43.48181" lon="5.24153">
        <ele>37.15</ele>
        <time>2014-01-05T15:30:11Z</time>
      </trkpt>
      <trkpt lat="43.48185" lon="5.24133">
        <ele>36.19</ele>
        <time>2014-01-05T15:30:28Z</time>
      </trkpt>
      <trkpt lat="43.48187" lon="5.24127">
        <ele>37.63</ele>
        <time>2014-01-05T15:30:48Z</time>
      </trkpt>
      <trkpt lat="43.48185" lon="5.24126">
        <ele>37.15</ele>
        <time>2014-01-05T15:31:16Z</time>
      </trkpt>
      <trkpt lat="43.48183" lon="5.24134">
        <ele>28.02</ele>
        <time>2014-01-05T15:31:42Z</time>
      </trkpt>
      <trkpt lat="43.48184" lon="5.24133">
        <ele>42.92</ele>
        <time>2014-01-05T15:31:43Z</time>
      </trkpt>
      <trkpt lat="43.48185" lon="5.24133">
        <ele>37.63</ele>
        <time>2014-01-05T15:31:44Z</time>
      </trkpt>
      <trkpt lat="43.48185" lon="5.24131">
        <ele>37.15</ele>
        <time>2014-01-05T15:31:46Z</time>
      </trkpt>
      <trkpt lat="43.48187" lon="5.24128">
        <ele>37.63</ele>
        <time>2014-01-05T15:32:11Z</time>
      </trkpt>
      <trkpt lat="43.4819" lon="5.24126">
        <ele>37.15</ele>
        <time>2014-01-05T15:32:25Z</time>
      </trkpt>
      <trkpt lat="43.48187" lon="5.24125">
        <ele>37.15</ele>
        <time>2014-01-05T15:32:41Z</time>
      </trkpt>
      <trkpt lat="43.48184" lon="5.24127">
        <ele>37.15</ele>
        <time>2014-01-05T15:33:07Z</time>
      </trkpt>
      <trkpt lat="43.48188" lon="5.24121">
        <ele>33.78</ele>
        <time>2014-01-05T15:33:20Z</time>
      </trkpt>
      <trkpt lat="43.48188" lon="5.24119">
        <ele>37.15</ele>
        <time>2014-01-05T15:33:23Z</time>
      </trkpt>
      <trkpt lat="43.48186" lon="5.24117">
        <ele>33.3</ele>
        <time>2014-01-05T15:33:31Z</time>
      </trkpt>
      <trkpt lat="43.48187" lon="5.2412">
        <ele>42.92</ele>
        <time>2014-01-05T15:33:32Z</time>
      </trkpt>
      <trkpt lat="43.48187" lon="5.2412">
        <ele>38.11</ele>
        <time>2014-01-05T15:33:33Z</time>
      </trkpt>
      <trkpt lat="43.48188" lon="5.24122">
        <ele>37.15</ele>
        <time>2014-01-05T15:33:35Z</time>
      </trkpt>
      <trkpt lat="43.48188" lon="5.24123">
        <ele>40.03</ele>
        <time>2014-01-05T15:33:43Z</time>
      </trkpt>
      <trkpt lat="43.48188" lon="5.24122">
        <ele>36.67</ele>
        <time>2014-01-05T15:33:44Z</time>
      </trkpt>
      <trkpt lat="43.48188" lon="5.24122">
        <ele>31.86</ele>
        <time>2014-01-05T15:33:45Z</time>
      </trkpt>
      <trkpt lat="43.48188" lon="5.24122">
        <ele>37.15</ele>
        <time>2014-01-05T15:33:46Z</time>
      </trkpt>
      <trkpt lat="43.48187" lon="5.2412">
        <ele>37.15</ele>
        <time>2014-01-05T15:33:51Z</time>
      </trkpt>
      <trkpt lat="43.48187" lon="5.24122">
        <ele>43.4</ele>
        <time>2014-01-05T15:33:53Z</time>
      </trkpt>
      <trkpt lat="43.48187" lon="5.24123">
        <ele>39.55</ele>
        <time>2014-01-05T15:33:54Z</time>
      </trkpt>
      <trkpt lat="43.48187" lon="5.24127">
        <ele>37.63</ele>
        <time>2014-01-05T15:33:56Z</time>
      </trkpt>
      <trkpt lat="43.48191" lon="5.24127">
        <ele>37.15</ele>
        <time>2014-01-05T15:34:17Z</time>
      </trkpt>
      <trkpt lat="43.48192" lon="5.24124">
        <ele>37.15</ele>
        <time>2014-01-05T15:34:31Z</time>
      </trkpt>
      <trkpt lat="43.48192" lon="5.24121">
        <ele>36.67</ele>
        <time>2014-01-05T15:34:53Z</time>
      </trkpt>
    </trkseg>
  </trk>
</gpx>